Observation data for Claude 12 Southwest on 05/13/2018      Previous  Date  Next       Current Mesonet Observations  Soil Data  Daily Summary Page  Observations in Plain Language
KCL1 130500Z 15009KT 27/13 A2994 RMK A01 T02680125  RH  041%=      5-min Rain = 0
KCL1 130501Z 15009KT 27/12 A2994 RMK A01 T02680124  RH  041%=      5-min Rain = 0
KCL1 130502Z 14009KT 27/13 A2994 RMK A01 T02680125  RH  041%=      5-min Rain = 0
KCL1 130503Z 15012KT 27/13 A2994 RMK A01 T02680126  RH  041%=      5-min Rain = 0
KCL1 130504Z 15010KT 27/13 A2994 RMK A01 T02680125  RH  041%=      5-min Rain = 0
KCL1 130505Z 15010KT 27/13 A2994 RMK A01 T02680126  RH  041%=      5-min Rain = 0
KCL1 130506Z 15007KT 27/13 A2994 RMK A01 T02680126  RH  041%=      5-min Rain = 0
KCL1 130507Z 14009KT 27/13 A2994 RMK A01 T02670126  RH  042%=      5-min Rain = 0
KCL1 130508Z 16010KT 27/13 A2994 RMK A01 T02660126  RH  042%=      5-min Rain = 0
KCL1 130509Z 15008KT 27/13 A2994 RMK A01 T02660126  RH  042%=      5-min Rain = 0
KCL1 130510Z 14008KT 27/13 A2994 RMK A01 T02650126  RH  042%=      5-min Rain = 0
KCL1 130511Z 14012KT 27/13 A2994 RMK A01 T02650126  RH  042%=      5-min Rain = 0
KCL1 130512Z 14012KT 26/13 A2994 RMK A01 T02640127  RH  043%=      5-min Rain = 0
KCL1 130513Z 15010KT 26/13 A2994 RMK A01 T02640127  RH  043%=      5-min Rain = 0
KCL1 130514Z 15009KT 27/13 A2994 RMK A01 T02650128  RH  043%=      5-min Rain = 0
KCL1 130515Z 14008KT 27/13 A2994 RMK A01 T02650127  RH  043%=      5-min Rain = 0
KCL1 130516Z 14011KT 26/13 A2994 RMK A01 T02640128  RH  043%=      5-min Rain = 0
KCL1 130517Z 14009KT 26/13 A2994 RMK A01 T02640128  RH  043%=      5-min Rain = 0
KCL1 130518Z 14010KT 26/13 A2994 RMK A01 T02640128  RH  043%=      5-min Rain = 0
KCL1 130519Z 15013KT 26/13 A2994 RMK A01 T02630129  RH  043%=      5-min Rain = 0
KCL1 130520Z 14009KT 26/13 A2995 RMK A01 T02630129  RH  043%=      5-min Rain = 0
KCL1 130521Z 13007KT 26/13 A2995 RMK A01 T02630129  RH  043%=      5-min Rain = 0
KCL1 130522Z 13009KT 26/13 A2994 RMK A01 T02620128  RH  043%=      5-min Rain = 0
KCL1 130523Z 14008KT 26/13 A2995 RMK A01 T02600128  RH  044%=      5-min Rain = 0
KCL1 130524Z 14011KT 26/13 A2994 RMK A01 T02590128  RH  044%=      5-min Rain = 0
KCL1 130525Z 14012KT 26/13 A2994 RMK A01 T02590130  RH  045%=      5-min Rain = 0
KCL1 130526Z 14008KT 26/13 A2995 RMK A01 T02600130  RH  044%=      5-min Rain = 0
KCL1 130527Z 13008KT 26/13 A2995 RMK A01 T02600130  RH  044%=      5-min Rain = 0
KCL1 130528Z 13011KT 26/13 A2995 RMK A01 T02600130  RH  044%=      5-min Rain = 0
KCL1 130529Z 14010KT 26/13 A2995 RMK A01 T02580130  RH  045%=      5-min Rain = 0
KCL1 130530Z 13009KT 26/13 A2995 RMK A01 T02580130  RH  045%=      5-min Rain = 0
KCL1 130531Z 13009KT 26/13 A2995 RMK A01 T02570130  RH  045%=      5-min Rain = 0
KCL1 130532Z 13010KT 26/13 A2995 RMK A01 T02570130  RH  045%=      5-min Rain = 0
KCL1 130533Z 13011KT 26/13 A2995 RMK A01 T02560130  RH  046%=      5-min Rain = 0
KCL1 130534Z 13009KT 26/13 A2995 RMK A01 T02550130  RH  046%=      5-min Rain = 0
KCL1 130535Z 13008KT 25/13 A2995 RMK A01 T02540130  RH  046%=      5-min Rain = 0
KCL1 130536Z 13008KT 25/13 A2995 RMK A01 T02530130  RH  046%=      5-min Rain = 0
KCL1 130537Z 13008KT 25/13 A2995 RMK A01 T02520130  RH  046%=      5-min Rain = 0
KCL1 130538Z 13009KT 25/13 A2995 RMK A01 T02520130  RH  047%=      5-min Rain = 0
KCL1 130539Z 13008KT 25/13 A2995 RMK A01 T02520130  RH  047%=      5-min Rain = 0
KCL1 130540Z 13009KT 25/13 A2995 RMK A01 T02520130  RH  047%=      5-min Rain = 0
KCL1 130541Z 14009KT 25/13 A2995 RMK A01 T02520130  RH  047%=      5-min Rain = 0
KCL1 130542Z 14009KT 25/13 A2995 RMK A01 T02520130  RH  047%=      5-min Rain = 0
KCL1 130543Z 14009KT 25/13 A2995 RMK A01 T02520130  RH  047%=      5-min Rain = 0
KCL1 130544Z 13009KT 25/13 A2995 RMK A01 T02510130  RH  047%=      5-min Rain = 0
KCL1 130545Z 13010KT 25/13 A2995 RMK A01 T02520131  RH  047%=      5-min Rain = 0
KCL1 130546Z 13009KT 25/13 A2995 RMK A01 T02520131  RH  047%=      5-min Rain = 0
KCL1 130547Z 13008KT 25/13 A2995 RMK A01 T02520131  RH  047%=      5-min Rain = 0
KCL1 130548Z 13008KT 25/13 A2995 RMK A01 T02520131  RH  047%=      5-min Rain = 0
KCL1 130549Z 14007KT 25/13 A2995 RMK A01 T02520131  RH  047%=      5-min Rain = 0
KCL1 130550Z 13008KT 25/13 A2995 RMK A01 T02520131  RH  047%=      5-min Rain = 0
KCL1 130551Z 13008KT 25/13 A2995 RMK A01 T02520131  RH  047%=      5-min Rain = 0
KCL1 130552Z 13009KT 25/13 A2995 RMK A01 T02520131  RH  047%=      5-min Rain = 0
KCL1 130553Z 13009KT 25/13 A2995 RMK A01 T02520132  RH  047%=      5-min Rain = 0
KCL1 130554Z 13008KT 25/13 A2995 RMK A01 T02520131  RH  047%=      5-min Rain = 0
KCL1 130555Z 14008KT 25/13 A2996 RMK A01 T02520131  RH  047%=      5-min Rain = 0
KCL1 130556Z 13008KT 25/13 A2996 RMK A01 T02520131  RH  047%=      5-min Rain = 0
KCL1 130557Z 14007KT 25/13 A2995 RMK A01 T02520131  RH  047%=      5-min Rain = 0
KCL1 130558Z 13007KT 25/13 A2996 RMK A01 T02510131  RH  047%=      5-min Rain = 0
KCL1 130559Z 12008KT 25/13 A2995 RMK A01 T02510131  RH  047%=      5-min Rain = 0
KCL1 130600Z 13009KT 25/13 A2995 RMK A01 T02500131  RH  048%=      5-min Rain = 0
KCL1 130601Z 14009KT 25/13 A2995 RMK A01 T02510132  RH  048%=      5-min Rain = 0
KCL1 130602Z 14009KT 25/13 A2995 RMK A01 T02510132  RH  048%=      5-min Rain = 0
KCL1 130603Z 14008KT 25/13 A2995 RMK A01 T02510132  RH  048%=      5-min Rain = 0
KCL1 130604Z 13008KT 25/13 A2995 RMK A01 T02510132  RH  048%=      5-min Rain = 0
KCL1 130605Z 14008KT 25/13 A2995 RMK A01 T02510133  RH  048%=      5-min Rain = 0
KCL1 130606Z 13008KT 25/13 A2995 RMK A01 T02510133  RH  048%=      5-min Rain = 0
KCL1 130607Z 14008KT 25/13 A2995 RMK A01 T02500133  RH  048%=      5-min Rain = 0
KCL1 130608Z 13010KT 25/13 A2995 RMK A01 T02500134  RH  048%=      5-min Rain = 0
KCL1 130609Z 14010KT 25/13 A2995 RMK A01 T02510134  RH  048%=      5-min Rain = 0
KCL1 130610Z 13010KT 25/14 A2995 RMK A01 T02520135  RH  048%=      5-min Rain = 0
KCL1 130611Z 13011KT 25/14 A2995 RMK A01 T02530135  RH  048%=      5-min Rain = 0
KCL1 130612Z 14011KT 25/14 A2995 RMK A01 T02540135  RH  048%=      5-min Rain = 0
KCL1 130613Z 14010KT 26/14 A2995 RMK A01 T02550136  RH  048%=      5-min Rain = 0
KCL1 130614Z 14008KT 26/14 A2995 RMK A01 T02560135  RH  047%=      5-min Rain = 0
KCL1 130615Z 14007G12KT 26/14 A2995 RMK A01 T02550135  RH  047%=      5-min Rain = 0
KCL1 130616Z 13007KT 26/14 A2995 RMK A01 T02550135  RH  047%=      5-min Rain = 0
KCL1 130617Z 13007KT 25/14 A2995 RMK A01 T02540135  RH  048%=      5-min Rain = 0
KCL1 130618Z 13007KT 25/14 A2995 RMK A01 T02530135  RH  048%=      5-min Rain = 0
KCL1 130619Z 14011KT 25/14 A2995 RMK A01 T02520135  RH  048%=      5-min Rain = 0
KCL1 130620Z 14011KT 25/14 A2995 RMK A01 T02520136  RH  049%=      5-min Rain = 0
KCL1 130621Z 13008KT 25/14 A2995 RMK A01 T02530135  RH  048%=      5-min Rain = 0
KCL1 130622Z 13008KT 25/14 A2995 RMK A01 T02540136  RH  048%=      5-min Rain = 0
KCL1 130623Z 13009KT 25/14 A2995 RMK A01 T02540135  RH  048%=      5-min Rain = 0
KCL1 130624Z 14009KT 25/14 A2995 RMK A01 T02530136  RH  048%=      5-min Rain = 0
KCL1 130625Z 15008KT 25/14 A2995 RMK A01 T02530135  RH  048%=      5-min Rain = 0
KCL1 130626Z 14008KT 25/14 A2995 RMK A01 T02520135  RH  048%=      5-min Rain = 0
KCL1 130627Z 13007KT 25/14 A2995 RMK A01 T02510135  RH  049%=      5-min Rain = 0
KCL1 130628Z 13010KT 25/14 A2995 RMK A01 T02500135  RH  049%=      5-min Rain = 0
KCL1 130629Z 14011KT 25/14 A2995 RMK A01 T02500137  RH  049%=      5-min Rain = 0
KCL1 130630Z 13011KT 25/14 A2995 RMK A01 T02500137  RH  049%=      5-min Rain = 0
KCL1 130631Z 13008KT 25/14 A2995 RMK A01 T02510137  RH  049%=      5-min Rain = 0
KCL1 130632Z 13008KT 25/14 A2995 RMK A01 T02510137  RH  049%=      5-min Rain = 0
KCL1 130633Z 13008KT 25/14 A2995 RMK A01 T02500136  RH  049%=      5-min Rain = 0
KCL1 130634Z 14008KT 25/14 A2995 RMK A01 T02490136  RH  049%=      5-min Rain = 0
KCL1 130635Z 15007KT 25/14 A2995 RMK A01 T02490136  RH  050%=      5-min Rain = 0
KCL1 130636Z 14007KT 25/14 A2995 RMK A01 T02480136  RH  050%=      5-min Rain = 0
KCL1 130637Z 13009KT 25/14 A2995 RMK A01 T02480137  RH  050%=      5-min Rain = 0
KCL1 130638Z 14008KT 25/14 A2995 RMK A01 T02480137  RH  050%=      5-min Rain = 0
KCL1 130639Z 14008KT 25/14 A2995 RMK A01 T02480137  RH  050%=      5-min Rain = 0
KCL1 130640Z 13010KT 25/14 A2995 RMK A01 T02480137  RH  050%=      5-min Rain = 0
KCL1 130641Z 14008KT 25/14 A2995 RMK A01 T02490138  RH  050%=      5-min Rain = 0
KCL1 130642Z 14008KT 25/14 A2995 RMK A01 T02490138  RH  050%=      5-min Rain = 0
KCL1 130643Z 14008KT 25/14 A2995 RMK A01 T02490138  RH  050%=      5-min Rain = 0
KCL1 130644Z 14010KT 25/14 A2995 RMK A01 T02490138  RH  050%=      5-min Rain = 0
KCL1 130645Z 14008KT 25/14 A2995 RMK A01 T02490138  RH  050%=      5-min Rain = 0
KCL1 130646Z 13010KT 25/14 A2995 RMK A01 T02490138  RH  050%=      5-min Rain = 0
KCL1 130647Z 15007KT 25/14 A2995 RMK A01 T02490139  RH  050%=      5-min Rain = 0
KCL1 130648Z 14006KT 25/14 A2995 RMK A01 T02500138  RH  050%=      5-min Rain = 0
KCL1 130649Z 15007KT 25/14 A2995 RMK A01 T02490138  RH  050%=      5-min Rain = 0
KCL1 130650Z 15007KT 25/14 A2995 RMK A01 T02490138  RH  050%=      5-min Rain = 0
KCL1 130651Z 15005KT 25/14 A2995 RMK A01 T02480138  RH  050%=      5-min Rain = 0
KCL1 130652Z 15008KT 25/14 A2995 RMK A01 T02480138  RH  050%=      5-min Rain = 0
KCL1 130653Z 15007KT 25/14 A2995 RMK A01 T02480139  RH  051%=      5-min Rain = 0
KCL1 130654Z 15006KT 25/14 A2995 RMK A01 T02470139  RH  051%=      5-min Rain = 0
KCL1 130655Z 14007KT 25/14 A2995 RMK A01 T02470138  RH  051%=      5-min Rain = 0
KCL1 130656Z 15009KT 25/14 A2995 RMK A01 T02470139  RH  051%=      5-min Rain = 0
KCL1 130657Z 15007KT 25/14 A2995 RMK A01 T02470139  RH  051%=      5-min Rain = 0
KCL1 130658Z 14008KT 25/14 A2995 RMK A01 T02480139  RH  051%=      5-min Rain = 0
KCL1 130659Z 14007KT 25/14 A2995 RMK A01 T02480139  RH  051%=      5-min Rain = 0
KCL1 130700Z 14007KT 25/14 A2995 RMK A01 T02470139  RH  051%=      5-min Rain = 0
KCL1 130701Z 14007KT 25/14 A2995 RMK A01 T02470139  RH  051%=      5-min Rain = 0
KCL1 130702Z 14006KT 25/14 A2995 RMK A01 T02470140  RH  051%=      5-min Rain = 0
KCL1 130703Z 15007KT 25/14 A2995 RMK A01 T02460139  RH  051%=      5-min Rain = 0
KCL1 130704Z 13008KT 25/14 A2995 RMK A01 T02460140  RH  052%=      5-min Rain = 0
KCL1 130705Z 15009KT 25/14 A2995 RMK A01 T02460140  RH  052%=      5-min Rain = 0
KCL1 130706Z 15011KT 25/14 A2995 RMK A01 T02460140  RH  052%=      5-min Rain = 0
KCL1 130707Z 14009KT 25/14 A2995 RMK A01 T02480141  RH  051%=      5-min Rain = 0
KCL1 130708Z 13006KT 25/14 A2995 RMK A01 T02490140  RH  051%=      5-min Rain = 0
KCL1 130709Z 12009KT 25/14 A2995 RMK A01 T02490140  RH  051%=      5-min Rain = 0
KCL1 130710Z 12009KT 25/14 A2995 RMK A01 T02490141  RH  051%=      5-min Rain = 0
KCL1 130711Z 13008KT 25/14 A2995 RMK A01 T02490140  RH  051%=      5-min Rain = 0
KCL1 130712Z 14008KT 25/14 A2994 RMK A01 T02490141  RH  051%=      5-min Rain = 0
KCL1 130713Z 13006KT 25/14 A2994 RMK A01 T02490140  RH  051%=      5-min Rain = 0
KCL1 130714Z 14007KT 25/14 A2994 RMK A01 T02470140  RH  051%=      5-min Rain = 0
KCL1 130715Z 14007KT 25/14 A2994 RMK A01 T02460140  RH  052%=      5-min Rain = 0
KCL1 130716Z 14008KT 25/14 A2994 RMK A01 T02460140  RH  052%=      5-min Rain = 0
KCL1 130717Z 13009KT 25/14 A2994 RMK A01 T02460140  RH  052%=      5-min Rain = 0
KCL1 130718Z 14011KT 25/14 A2994 RMK A01 T02470141  RH  052%=      5-min Rain = 0
KCL1 130719Z 13008KT 25/14 A2994 RMK A01 T02480141  RH  051%=      5-min Rain = 0
KCL1 130720Z 14009KT 25/14 A2994 RMK A01 T02480141  RH  051%=      5-min Rain = 0
KCL1 130721Z 16010KT 25/14 A2994 RMK A01 T02480141  RH  051%=      5-min Rain = 0
KCL1 130722Z 13007G12KT 25/14 A2994 RMK A01 T02490141  RH  051%=      5-min Rain = 0
KCL1 130723Z 15005KT 25/14 A2994 RMK A01 T02490141  RH  051%=      5-min Rain = 0
KCL1 130724Z 14004KT 25/14 A2994 RMK A01 T02480141  RH  051%=      5-min Rain = 0
KCL1 130725Z 14005KT 25/14 A2994 RMK A01 T02470140  RH  051%=      5-min Rain = 0
KCL1 130726Z 16006KT 25/14 A2994 RMK A01 T02460141  RH  052%=      5-min Rain = 0
KCL1 130727Z 15006KT 25/14 A2994 RMK A01 T02460141  RH  052%=      5-min Rain = 0
KCL1 130728Z 15006KT 25/14 A2994 RMK A01 T02460141  RH  052%=      5-min Rain = 0
KCL1 130729Z 15008KT 25/14 A2994 RMK A01 T02460141  RH  052%=      5-min Rain = 0
KCL1 130730Z 15007KT 25/14 A2994 RMK A01 T02460141  RH  052%=      5-min Rain = 0
KCL1 130731Z 13006KT 25/14 A2994 RMK A01 T02460141  RH  052%=      5-min Rain = 0
KCL1 130732Z 15009KT 25/14 A2994 RMK A01 T02460141  RH  052%=      5-min Rain = 0
KCL1 130733Z 15010KT 25/14 A2994 RMK A01 T02460141  RH  052%=      5-min Rain = 0
KCL1 130734Z 14008KT 25/14 A2994 RMK A01 T02470141  RH  052%=      5-min Rain = 0
KCL1 130735Z 16009KT 25/14 A2994 RMK A01 T02470141  RH  052%=      5-min Rain = 0
KCL1 130736Z 14007KT 25/14 A2994 RMK A01 T02470141  RH  052%=      5-min Rain = 0
KCL1 130737Z 14007KT 25/14 A2994 RMK A01 T02470141  RH  052%=      5-min Rain = 0
KCL1 130738Z 15007KT 25/14 A2994 RMK A01 T02460141  RH  052%=      5-min Rain = 0
KCL1 130739Z 14007KT 25/14 A2994 RMK A01 T02460141  RH  052%=      5-min Rain = 0
KCL1 130740Z 14010KT 25/14 A2994 RMK A01 T02460141  RH  052%=      5-min Rain = 0
KCL1 130741Z 14009KT 25/14 A2994 RMK A01 T02460141  RH  052%=      5-min Rain = 0
KCL1 130742Z 13006KT 25/14 A2994 RMK A01 T02460141  RH  052%=      5-min Rain = 0
KCL1 130743Z 15007KT 25/14 A2994 RMK A01 T02460141  RH  052%=      5-min Rain = 0
KCL1 130744Z 14006KT 25/14 A2994 RMK A01 T02450141  RH  052%=      5-min Rain = 0
KCL1 130745Z 12006KT 25/14 A2994 RMK A01 T02450141  RH  052%=      5-min Rain = 0
KCL1 130746Z 12006KT 24/14 A2994 RMK A01 T02430140  RH  053%=      5-min Rain = 0
KCL1 130747Z 13007KT 24/14 A2994 RMK A01 T02410140  RH  053%=      5-min Rain = 0
KCL1 130748Z 14006KT 24/14 A2994 RMK A01 T02390140  RH  054%=      5-min Rain = 0
KCL1 130749Z 13007KT 24/14 A2994 RMK A01 T02390141  RH  054%=      5-min Rain = 0
KCL1 130750Z 13007KT 24/14 A2994 RMK A01 T02390140  RH  054%=      5-min Rain = 0
KCL1 130751Z 13007KT 24/14 A2994 RMK A01 T02390141  RH  054%=      5-min Rain = 0
KCL1 130752Z 13006KT 24/14 A2994 RMK A01 T02390140  RH  054%=      5-min Rain = 0
KCL1 130753Z 13007KT 24/14 A2994 RMK A01 T02390141  RH  054%=      5-min Rain = 0
KCL1 130754Z 14007KT 24/14 A2994 RMK A01 T02380141  RH  054%=      5-min Rain = 0
KCL1 130755Z 13007KT 24/14 A2993 RMK A01 T02370140  RH  054%=      5-min Rain = 0
KCL1 130756Z 12009KT 24/14 A2993 RMK A01 T02380141  RH  055%=      5-min Rain = 0
KCL1 130757Z 12008KT 24/14 A2993 RMK A01 T02380141  RH  054%=      5-min Rain = 0
KCL1 130758Z 12007KT 24/14 A2993 RMK A01 T02380140  RH  054%=      5-min Rain = 0
KCL1 130759Z 13008KT 24/14 A2993 RMK A01 T02380141  RH  054%=      5-min Rain = 0
KCL1 130800Z 13006KT 24/14 A2993 RMK A01 T02380140  RH  054%=      5-min Rain = 0
KCL1 130801Z 13005KT 24/14 A2993 RMK A01 T02370140  RH  055%=      5-min Rain = 0
KCL1 130802Z 14006KT 24/14 A2993 RMK A01 T02360140  RH  055%=      5-min Rain = 0
KCL1 130803Z 13005KT 24/14 A2993 RMK A01 T02350140  RH  055%=      5-min Rain = 0
KCL1 130804Z 12005KT 24/14 A2993 RMK A01 T02350140  RH  055%=      5-min Rain = 0
KCL1 130805Z 12006KT 23/14 A2993 RMK A01 T02340140  RH  055%=      5-min Rain = 0
KCL1 130806Z 13007KT 23/14 A2994 RMK A01 T02330140  RH  056%=      5-min Rain = 0
KCL1 130807Z 13007KT 23/14 A2994 RMK A01 T02320139  RH  056%=      5-min Rain = 0
KCL1 130808Z 13007KT 23/14 A2994 RMK A01 T02320140  RH  056%=      5-min Rain = 0
KCL1 130809Z 13009KT 23/14 A2993 RMK A01 T02320140  RH  056%=      5-min Rain = 0
KCL1 130810Z 14007KT 23/14 A2993 RMK A01 T02330140  RH  056%=      5-min Rain = 0
KCL1 130811Z 13006KT 23/14 A2994 RMK A01 T02340140  RH  056%=      5-min Rain = 0
KCL1 130812Z 13006KT 23/14 A2993 RMK A01 T02340140  RH  055%=      5-min Rain = 0
KCL1 130813Z 14005KT 23/14 A2994 RMK A01 T02340140  RH  055%=      5-min Rain = 0
KCL1 130814Z 13005KT 23/14 A2994 RMK A01 T02330140  RH  056%=      5-min Rain = 0
KCL1 130815Z 13007KT 23/14 A2993 RMK A01 T02320140  RH  056%=      5-min Rain = 0
KCL1 130816Z 13008KT 23/14 A2993 RMK A01 T02310140  RH  056%=      5-min Rain = 0
KCL1 130817Z 13007KT 23/14 A2993 RMK A01 T02310140  RH  057%=      5-min Rain = 0
KCL1 130818Z 13008KT 23/14 A2993 RMK A01 T02310140  RH  056%=      5-min Rain = 0
KCL1 130819Z 13009KT 23/14 A2993 RMK A01 T02310140  RH  056%=      5-min Rain = 0
KCL1 130820Z 13008KT 23/14 A2993 RMK A01 T02320140  RH  056%=      5-min Rain = 0
KCL1 130821Z 13009KT 23/14 A2993 RMK A01 T02330141  RH  056%=      5-min Rain = 0
KCL1 130822Z 13009KT 23/14 A2993 RMK A01 T02330141  RH  056%=      5-min Rain = 0
KCL1 130823Z 13009KT 23/14 A2993 RMK A01 T02330141  RH  056%=      5-min Rain = 0
KCL1 130824Z 13008KT 23/14 A2993 RMK A01 T02330141  RH  056%=      5-min Rain = 0
KCL1 130825Z 14008KT 24/14 A2993 RMK A01 T02350141  RH  056%=      5-min Rain = 0
KCL1 130826Z 14007KT 24/14 A2993 RMK A01 T02350141  RH  055%=      5-min Rain = 0
KCL1 130827Z 14007KT 24/14 A2993 RMK A01 T02350141  RH  056%=      5-min Rain = 0
KCL1 130828Z 13006KT 24/14 A2993 RMK A01 T02350141  RH  056%=      5-min Rain = 0
KCL1 130829Z 13008KT 24/14 A2993 RMK A01 T02350141  RH  056%=      5-min Rain = 0
KCL1 130830Z 14008KT 24/14 A2993 RMK A01 T02350141  RH  056%=      5-min Rain = 0
KCL1 130831Z 14008KT 23/14 A2993 RMK A01 T02340141  RH  056%=      5-min Rain = 0
KCL1 130832Z 15007KT 23/14 A2993 RMK A01 T02330141  RH  056%=      5-min Rain = 0
KCL1 130833Z 14007KT 23/14 A2993 RMK A01 T02330141  RH  056%=      5-min Rain = 0
KCL1 130834Z 14008KT 23/14 A2993 RMK A01 T02320140  RH  056%=      5-min Rain = 0
KCL1 130835Z 13007KT 23/14 A2993 RMK A01 T02320141  RH  056%=      5-min Rain = 0
KCL1 130836Z 13009KT 23/14 A2993 RMK A01 T02320141  RH  056%=      5-min Rain = 0
KCL1 130837Z 14011KT 23/14 A2993 RMK A01 T02320141  RH  057%=      5-min Rain = 0
KCL1 130838Z 15009KT 23/14 A2993 RMK A01 T02340142  RH  056%=      5-min Rain = 0
KCL1 130839Z 15007KT 24/14 A2993 RMK A01 T02360142  RH  055%=      5-min Rain = 0
KCL1 130840Z 14007KT 24/14 A2993 RMK A01 T02360141  RH  055%=      5-min Rain = 0
KCL1 130841Z 14006KT 24/14 A2993 RMK A01 T02350141  RH  055%=      5-min Rain = 0
KCL1 130842Z 13007KT 23/14 A2993 RMK A01 T02340141  RH  056%=      5-min Rain = 0
KCL1 130843Z 14008KT 23/14 A2993 RMK A01 T02340141  RH  056%=      5-min Rain = 0
KCL1 130844Z 14009KT 23/14 A2993 RMK A01 T02330141  RH  056%=      5-min Rain = 0
KCL1 130845Z 14007KT 23/14 A2993 RMK A01 T02340141  RH  056%=      5-min Rain = 0
KCL1 130846Z 15007KT 23/14 A2993 RMK A01 T02340141  RH  056%=      5-min Rain = 0
KCL1 130847Z 15006KT 23/14 A2993 RMK A01 T02340141  RH  056%=      5-min Rain = 0
KCL1 130848Z 14007KT 23/14 A2993 RMK A01 T02340141  RH  056%=      5-min Rain = 0
KCL1 130849Z 15007KT 23/14 A2993 RMK A01 T02340141  RH  056%=      5-min Rain = 0
KCL1 130850Z 16006KT 23/14 A2993 RMK A01 T02330141  RH  056%=      5-min Rain = 0
KCL1 130851Z 16009KT 23/14 A2993 RMK A01 T02340141  RH  056%=      5-min Rain = 0
KCL1 130852Z 16008KT 24/14 A2993 RMK A01 T02370142  RH  055%=      5-min Rain = 0
KCL1 130853Z 16007KT 24/14 A2993 RMK A01 T02380142  RH  055%=      5-min Rain = 0
KCL1 130854Z 16008KT 24/14 A2993 RMK A01 T02380142  RH  055%=      5-min Rain = 0
KCL1 130855Z 16006KT 24/14 A2994 RMK A01 T02380141  RH  055%=      5-min Rain = 0
KCL1 130856Z 16008KT 24/14 A2994 RMK A01 T02380142  RH  055%=      5-min Rain = 0
KCL1 130857Z 16007KT 24/14 A2994 RMK A01 T02380141  RH  055%=      5-min Rain = 0
KCL1 130858Z 16007KT 24/14 A2994 RMK A01 T02380141  RH  055%=      5-min Rain = 0
KCL1 130859Z 16009KT 24/14 A2994 RMK A01 T02370141  RH  055%=      5-min Rain = 0
KCL1 130900Z 16010KT 24/14 A2994 RMK A01 T02370141  RH  055%=      5-min Rain = 0
KCL1 130901Z 17009KT 24/14 A2994 RMK A01 T02380141  RH  055%=      5-min Rain = 0
KCL1 130902Z 17008KT 24/14 A2994 RMK A01 T02390142  RH  054%=      5-min Rain = 0
KCL1 130903Z 17009KT 24/14 A2994 RMK A01 T02390142  RH  054%=      5-min Rain = 0
KCL1 130904Z 17011KT 24/14 A2994 RMK A01 T02400141  RH  054%=      5-min Rain = 0
KCL1 130905Z 16011KT 24/14 A2994 RMK A01 T02410142  RH  054%=      5-min Rain = 0
KCL1 130906Z 16009KT 24/14 A2994 RMK A01 T02410142  RH  054%=      5-min Rain = 0
KCL1 130907Z 17008KT 24/14 A2994 RMK A01 T02410142  RH  054%=      5-min Rain = 0
KCL1 130908Z 17009KT 24/14 A2994 RMK A01 T02400142  RH  054%=      5-min Rain = 0
KCL1 130909Z 15009KT 24/14 A2994 RMK A01 T02400142  RH  054%=      5-min Rain = 0
KCL1 130910Z 16009KT 24/14 A2994 RMK A01 T02400142  RH  054%=      5-min Rain = 0
KCL1 130911Z 16009KT 24/14 A2994 RMK A01 T02410142  RH  054%=      5-min Rain = 0
KCL1 130912Z 16008KT 24/14 A2994 RMK A01 T02410142  RH  054%=      5-min Rain = 0
KCL1 130913Z 17007KT 24/14 A2994 RMK A01 T02410142  RH  054%=      5-min Rain = 0
KCL1 130914Z 17008KT 24/14 A2994 RMK A01 T02400142  RH  054%=      5-min Rain = 0
KCL1 130915Z 17009KT 24/14 A2994 RMK A01 T02400142  RH  054%=      5-min Rain = 0
KCL1 130916Z 17009KT 24/14 A2994 RMK A01 T02400142  RH  054%=      5-min Rain = 0
KCL1 130917Z 18009KT 24/14 A2994 RMK A01 T02400142  RH  054%=      5-min Rain = 0
KCL1 130918Z 18009KT 24/14 A2994 RMK A01 T02400142  RH  054%=      5-min Rain = 0
KCL1 130919Z 17007KT 24/14 A2994 RMK A01 T02400142  RH  054%=      5-min Rain = 0
KCL1 130920Z 16010KT 24/14 A2994 RMK A01 T02400142  RH  054%=      5-min Rain = 0
KCL1 130921Z 17009KT 24/14 A2994 RMK A01 T02400143  RH  054%=      5-min Rain = 0
KCL1 130922Z 17008KT 24/14 A2994 RMK A01 T02400143  RH  054%=      5-min Rain = 0
KCL1 130923Z 18008KT 24/14 A2994 RMK A01 T02400143  RH  054%=      5-min Rain = 0
KCL1 130924Z 17010KT 24/14 A2994 RMK A01 T02400143  RH  055%=      5-min Rain = 0
KCL1 130925Z 17009KT 24/14 A2994 RMK A01 T02400143  RH  055%=      5-min Rain = 0
KCL1 130926Z 18009KT 24/14 A2994 RMK A01 T02400143  RH  055%=      5-min Rain = 0
KCL1 130927Z 18009KT 24/14 A2995 RMK A01 T02390143  RH  055%=      5-min Rain = 0
KCL1 130928Z 18009KT 24/14 A2994 RMK A01 T02390143  RH  055%=      5-min Rain = 0
KCL1 130929Z 17011KT 24/14 A2994 RMK A01 T02390143  RH  055%=      5-min Rain = 0
KCL1 130930Z 17009KT 24/14 A2994 RMK A01 T02390143  RH  055%=      5-min Rain = 0
KCL1 130931Z 18008KT 24/14 A2995 RMK A01 T02390143  RH  055%=      5-min Rain = 0
KCL1 130932Z 17011KT 24/14 A2994 RMK A01 T02390143  RH  055%=      5-min Rain = 0
KCL1 130933Z 18010KT 24/14 A2995 RMK A01 T02390143  RH  055%=      5-min Rain = 0
KCL1 130934Z 19011KT 24/14 A2995 RMK A01 T02390143  RH  055%=      5-min Rain = 0
KCL1 130935Z 17009KT 24/14 A2995 RMK A01 T02390143  RH  055%=      5-min Rain = 0
KCL1 130936Z 18010KT 24/14 A2994 RMK A01 T02390143  RH  055%=      5-min Rain = 0
KCL1 130937Z 19010KT 24/14 A2995 RMK A01 T02390144  RH  055%=      5-min Rain = 0
KCL1 130938Z 18008KT 24/14 A2995 RMK A01 T02390143  RH  055%=      5-min Rain = 0
KCL1 130939Z 18007KT 24/14 A2995 RMK A01 T02390144  RH  055%=      5-min Rain = 0
KCL1 130940Z 18011KT 24/14 A2995 RMK A01 T02380143  RH  055%=      5-min Rain = 0
KCL1 130941Z 18011KT 24/14 A2995 RMK A01 T02380144  RH  055%=      5-min Rain = 0
KCL1 130942Z 19010KT 24/14 A2995 RMK A01 T02380144  RH  055%=      5-min Rain = 0
KCL1 130943Z 18008KT 24/14 A2995 RMK A01 T02380143  RH  055%=      5-min Rain = 0
KCL1 130944Z 18008KT 24/14 A2995 RMK A01 T02380144  RH  055%=      5-min Rain = 0
KCL1 130945Z 18008KT 24/14 A2995 RMK A01 T02380143  RH  056%=      5-min Rain = 0
KCL1 130946Z 19011KT 24/14 A2995 RMK A01 T02370144  RH  056%=      5-min Rain = 0
KCL1 130947Z 19011KT 24/14 A2995 RMK A01 T02370144  RH  056%=      5-min Rain = 0
KCL1 130948Z 18011KT 24/14 A2995 RMK A01 T02370144  RH  056%=      5-min Rain = 0
KCL1 130949Z 18008KT 24/14 A2995 RMK A01 T02380144  RH  056%=      5-min Rain = 0
KCL1 130950Z 18009KT 24/14 A2995 RMK A01 T02380144  RH  056%=      5-min Rain = 0
KCL1 130951Z 18008KT 24/14 A2995 RMK A01 T02370144  RH  056%=      5-min Rain = 0
KCL1 130952Z 19006KT 24/14 A2995 RMK A01 T02370144  RH  056%=      5-min Rain = 0
KCL1 130953Z 19009KT 24/14 A2995 RMK A01 T02360144  RH  056%=      5-min Rain = 0
KCL1 130954Z 19010KT 24/14 A2995 RMK A01 T02370144  RH  056%=      5-min Rain = 0
KCL1 130955Z 18007KT 24/14 A2995 RMK A01 T02370144  RH  056%=      5-min Rain = 0
KCL1 130956Z 20006KT 24/14 A2995 RMK A01 T02370144  RH  056%=      5-min Rain = 0
KCL1 130957Z 19006KT 24/14 A2995 RMK A01 T02360144  RH  056%=      5-min Rain = 0
KCL1 130958Z 19010KT 24/14 A2995 RMK A01 T02360144  RH  056%=      5-min Rain = 0
KCL1 130959Z 18009KT 24/14 A2995 RMK A01 T02360144  RH  056%=      5-min Rain = 0
KCL1 131000Z 18008KT 24/14 A2995 RMK A01 T02360144  RH  056%=      5-min Rain = 0
KCL1 131001Z 18008KT 24/14 A2995 RMK A01 T02360144  RH  056%=      5-min Rain = 0
KCL1 131002Z 19008KT 24/14 A2995 RMK A01 T02360144  RH  056%=      5-min Rain = 0
KCL1 131003Z 18006KT 24/14 A2995 RMK A01 T02360144  RH  056%=      5-min Rain = 0
KCL1 131004Z 19007KT 24/14 A2995 RMK A01 T02350144  RH  056%=      5-min Rain = 0
KCL1 131005Z 18007KT 24/14 A2995 RMK A01 T02350144  RH  057%=      5-min Rain = 0
KCL1 131006Z 18007KT 24/14 A2995 RMK A01 T02350144  RH  057%=      5-min Rain = 0
KCL1 131007Z 18007KT 24/14 A2995 RMK A01 T02350144  RH  057%=      5-min Rain = 0
KCL1 131008Z 19006KT 23/14 A2995 RMK A01 T02340144  RH  057%=      5-min Rain = 0
KCL1 131009Z 18005KT 23/14 A2995 RMK A01 T02340144  RH  057%=      5-min Rain = 0
KCL1 131010Z 18008KT 23/14 A2995 RMK A01 T02340144  RH  057%=      5-min Rain = 0
KCL1 131011Z 19008KT 23/14 A2995 RMK A01 T02340144  RH  057%=      5-min Rain = 0
KCL1 131012Z 19005KT 23/14 A2995 RMK A01 T02340144  RH  057%=      5-min Rain = 0
KCL1 131013Z 19005KT 23/14 A2995 RMK A01 T02340144  RH  057%=      5-min Rain = 0
KCL1 131014Z 18007KT 23/14 A2995 RMK A01 T02340143  RH  057%=      5-min Rain = 0
KCL1 131015Z 18008KT 23/14 A2995 RMK A01 T02340143  RH  057%=      5-min Rain = 0
KCL1 131016Z 19007KT 23/14 A2995 RMK A01 T02340144  RH  057%=      5-min Rain = 0
KCL1 131017Z 18008KT 23/14 A2995 RMK A01 T02340144  RH  057%=      5-min Rain = 0
KCL1 131018Z 18006KT 23/14 A2995 RMK A01 T02340144  RH  057%=      5-min Rain = 0
KCL1 131019Z 19008KT 23/14 A2995 RMK A01 T02340144  RH  057%=      5-min Rain = 0
KCL1 131020Z 17007KT 23/14 A2995 RMK A01 T02340144  RH  057%=      5-min Rain = 0
KCL1 131021Z 18009KT 23/14 A2995 RMK A01 T02340144  RH  057%=      5-min Rain = 0
KCL1 131022Z 19008KT 23/14 A2995 RMK A01 T02340144  RH  057%=      5-min Rain = 0
KCL1 131023Z 17008KT 23/14 A2995 RMK A01 T02340144  RH  057%=      5-min Rain = 0
KCL1 131024Z 19010KT 23/14 A2995 RMK A01 T02340144  RH  057%=      5-min Rain = 0
KCL1 131025Z 18008KT 23/14 A2995 RMK A01 T02340144  RH  057%=      5-min Rain = 0
KCL1 131026Z 20008KT 23/14 A2995 RMK A01 T02340144  RH  057%=      5-min Rain = 0
KCL1 131027Z 18007KT 24/14 A2995 RMK A01 T02350144  RH  057%=      5-min Rain = 0
KCL1 131028Z 19010KT 24/14 A2995 RMK A01 T02350144  RH  056%=      5-min Rain = 0
KCL1 131029Z 18012KT 24/14 A2995 RMK A01 T02360144  RH  056%=      5-min Rain = 0
KCL1 131030Z 17009KT 24/14 A2995 RMK A01 T02360144  RH  056%=      5-min Rain = 0
KCL1 131031Z 18009KT 24/14 A2995 RMK A01 T02360144  RH  056%=      5-min Rain = 0
KCL1 131032Z 17008KT 24/14 A2995 RMK A01 T02350144  RH  056%=      5-min Rain = 0
KCL1 131033Z 17007KT 24/14 A2995 RMK A01 T02350144  RH  057%=      5-min Rain = 0
KCL1 131034Z 20009KT 23/14 A2995 RMK A01 T02340144  RH  057%=      5-min Rain = 0
KCL1 131035Z 18007KT 23/14 A2995 RMK A01 T02340144  RH  057%=      5-min Rain = 0
KCL1 131036Z 18007KT 23/14 A2995 RMK A01 T02340144  RH  057%=      5-min Rain = 0
KCL1 131037Z 19006KT 23/14 A2995 RMK A01 T02330144  RH  057%=      5-min Rain = 0
KCL1 131038Z 17005KT 23/14 A2995 RMK A01 T02320144  RH  057%=      5-min Rain = 0
KCL1 131039Z 18007KT 23/14 A2995 RMK A01 T02320143  RH  057%=      5-min Rain = 0
KCL1 131040Z 17009KT 23/14 A2995 RMK A01 T02320144  RH  057%=      5-min Rain = 0
KCL1 131041Z 18010KT 23/14 A2995 RMK A01 T02320144  RH  057%=      5-min Rain = 0
KCL1 131042Z 18008KT 23/14 A2995 RMK A01 T02320144  RH  058%=      5-min Rain = 0
KCL1 131043Z 18008KT 23/14 A2996 RMK A01 T02320143  RH  057%=      5-min Rain = 0
KCL1 131044Z 17006KT 23/14 A2996 RMK A01 T02330144  RH  057%=      5-min Rain = 0
KCL1 131045Z 16008KT 23/14 A2996 RMK A01 T02320143  RH  057%=      5-min Rain = 0
KCL1 131046Z 17008KT 23/14 A2996 RMK A01 T02310143  RH  058%=      5-min Rain = 0
KCL1 131047Z 17006KT 23/14 A2996 RMK A01 T02310144  RH  058%=      5-min Rain = 0
KCL1 131048Z 16006KT 23/14 A2996 RMK A01 T02310144  RH  058%=      5-min Rain = 0
KCL1 131049Z 16007KT 23/14 A2996 RMK A01 T02300143  RH  058%=      5-min Rain = 0
KCL1 131050Z 15006KT 23/14 A2996 RMK A01 T02300143  RH  058%=      5-min Rain = 0
KCL1 131051Z 15007KT 23/14 A2996 RMK A01 T02290144  RH  058%=      5-min Rain = 0
KCL1 131052Z 14005KT 23/14 A2996 RMK A01 T02280143  RH  059%=      5-min Rain = 0
KCL1 131053Z 15006KT 23/14 A2996 RMK A01 T02270143  RH  059%=      5-min Rain = 0
KCL1 131054Z 14005KT 23/14 A2996 RMK A01 T02250143  RH  060%=      5-min Rain = 0
KCL1 131055Z 15006KT 22/14 A2996 RMK A01 T02240143  RH  060%=      5-min Rain = 0
KCL1 131056Z 16004KT 22/14 A2996 RMK A01 T02230143  RH  060%=      5-min Rain = 0
KCL1 131057Z 15004KT 22/14 A2996 RMK A01 T02230143  RH  060%=      5-min Rain = 0
KCL1 131058Z 16005KT 22/14 A2996 RMK A01 T02220143  RH  061%=      5-min Rain = 0
KCL1 131059Z 14003KT 22/14 A2996 RMK A01 T02210143  RH  061%=      5-min Rain = 0
KCL1 131100Z 15004KT 22/14 A2996 RMK A01 T02200142  RH  061%=      5-min Rain = 0
KCL1 131101Z 14003KT 22/14 A2996 RMK A01 T02190143  RH  062%=      5-min Rain = 0
KCL1 131102Z 15004KT 22/14 A2996 RMK A01 T02180142  RH  062%=      5-min Rain = 0
KCL1 131103Z 17005KT 22/14 A2996 RMK A01 T02180142  RH  062%=      5-min Rain = 0
KCL1 131104Z 15005KT 22/14 A2996 RMK A01 T02170143  RH  062%=      5-min Rain = 0
KCL1 131105Z 15004KT 22/14 A2996 RMK A01 T02170142  RH  062%=      5-min Rain = 0
KCL1 131106Z 15004KT 22/14 A2996 RMK A01 T02180143  RH  062%=      5-min Rain = 0
KCL1 131107Z 15003KT 22/14 A2996 RMK A01 T02170143  RH  062%=      5-min Rain = 0
KCL1 131108Z 16005KT 22/14 A2996 RMK A01 T02170143  RH  063%=      5-min Rain = 0
KCL1 131109Z 16005KT 22/14 A2996 RMK A01 T02170143  RH  063%=      5-min Rain = 0
KCL1 131110Z 16006KT 22/14 A2996 RMK A01 T02170143  RH  063%=      5-min Rain = 0
KCL1 131111Z 17005KT 22/14 A2996 RMK A01 T02180144  RH  063%=      5-min Rain = 0
KCL1 131112Z 16005KT 22/14 A2996 RMK A01 T02190144  RH  062%=      5-min Rain = 0
KCL1 131113Z 17005KT 22/14 A2996 RMK A01 T02200144  RH  062%=      5-min Rain = 0
KCL1 131114Z 16006KT 22/14 A2997 RMK A01 T02200144  RH  062%=      5-min Rain = 0
KCL1 131115Z 16007KT 22/14 A2996 RMK A01 T02200144  RH  062%=      5-min Rain = 0
KCL1 131116Z 17008KT 22/14 A2996 RMK A01 T02190144  RH  062%=      5-min Rain = 0
KCL1 131117Z 18006KT 22/14 A2997 RMK A01 T02210144  RH  062%=      5-min Rain = 0
KCL1 131118Z 17006KT 22/15 A2997 RMK A01 T02220145  RH  062%=      5-min Rain = 0
KCL1 131119Z 18007KT 22/15 A2997 RMK A01 T02230145  RH  061%=      5-min Rain = 0
KCL1 131120Z 19006KT 22/14 A2997 RMK A01 T02220144  RH  061%=      5-min Rain = 0
KCL1 131121Z 19006KT 22/15 A2997 RMK A01 T02230145  RH  061%=      5-min Rain = 0
KCL1 131122Z 17004KT 22/14 A2997 RMK A01 T02230144  RH  061%=      5-min Rain = 0
KCL1 131123Z 18006KT 22/14 A2997 RMK A01 T02220144  RH  061%=      5-min Rain = 0
KCL1 131124Z 17005KT 22/15 A2997 RMK A01 T02210145  RH  062%=      5-min Rain = 0
KCL1 131125Z 19006KT 22/15 A2997 RMK A01 T02210145  RH  062%=      5-min Rain = 0
KCL1 131126Z 17005KT 22/15 A2997 RMK A01 T02210145  RH  062%=      5-min Rain = 0
KCL1 131127Z 18006KT 22/14 A2997 RMK A01 T02210144  RH  062%=      5-min Rain = 0
KCL1 131128Z 18006KT 22/14 A2997 RMK A01 T02200144  RH  062%=      5-min Rain = 0
KCL1 131129Z 18006KT 22/15 A2997 RMK A01 T02200145  RH  062%=      5-min Rain = 0
KCL1 131130Z 19006KT 22/15 A2997 RMK A01 T02200145  RH  062%=      5-min Rain = 0
KCL1 131131Z 19005KT 22/14 A2997 RMK A01 T02190144  RH  062%=      5-min Rain = 0
KCL1 131132Z 18004KT 22/14 A2997 RMK A01 T02190144  RH  062%=      5-min Rain = 0
KCL1 131133Z 19004KT 22/14 A2997 RMK A01 T02190144  RH  063%=      5-min Rain = 0
KCL1 131134Z 18006KT 22/14 A2997 RMK A01 T02190144  RH  063%=      5-min Rain = 0
KCL1 131135Z 18006KT 22/15 A2997 RMK A01 T02190145  RH  063%=      5-min Rain = 0
KCL1 131136Z 18004KT 22/15 A2997 RMK A01 T02190145  RH  063%=      5-min Rain = 0
KCL1 131137Z 19005KT 22/15 A2997 RMK A01 T02190145  RH  063%=      5-min Rain = 0
KCL1 131138Z 17005KT 22/15 A2997 RMK A01 T02190145  RH  063%=      5-min Rain = 0
KCL1 131139Z 18007KT 22/15 A2997 RMK A01 T02180145  RH  063%=      5-min Rain = 0
KCL1 131140Z 18004KT 22/15 A2997 RMK A01 T02180145  RH  063%=      5-min Rain = 0
KCL1 131141Z 16005KT 22/15 A2997 RMK A01 T02180145  RH  063%=      5-min Rain = 0
KCL1 131142Z 17008G13KT 22/15 A2997 RMK A01 T02180145  RH  063%=      5-min Rain = 0
KCL1 131143Z 18007KT 22/15 A2997 RMK A01 T02180145  RH  063%=      5-min Rain = 0
KCL1 131144Z 17007KT 22/15 A2997 RMK A01 T02200145  RH  063%=      5-min Rain = 0
KCL1 131145Z 18005KT 22/15 A2997 RMK A01 T02200145  RH  062%=      5-min Rain = 0
KCL1 131146Z 18005KT 22/15 A2997 RMK A01 T02190145  RH  063%=      5-min Rain = 0
KCL1 131147Z 17007KT 22/15 A2997 RMK A01 T02190145  RH  063%=      5-min Rain = 0
KCL1 131148Z 17007KT 22/15 A2997 RMK A01 T02180145  RH  063%=      5-min Rain = 0
KCL1 131149Z 18006KT 22/15 A2997 RMK A01 T02170145  RH  063%=      5-min Rain = 0
KCL1 131150Z 17006KT 22/15 A2997 RMK A01 T02170145  RH  064%=      5-min Rain = 0
KCL1 131151Z 18005KT 22/15 A2997 RMK A01 T02170145  RH  064%=      5-min Rain = 0
KCL1 131152Z 17006KT 22/15 A2997 RMK A01 T02160145  RH  064%=      5-min Rain = 0
KCL1 131153Z 18006KT 22/15 A2997 RMK A01 T02150145  RH  064%=      5-min Rain = 0
KCL1 131154Z 17005KT 22/14 A2997 RMK A01 T02150144  RH  064%=      5-min Rain = 0
KCL1 131155Z 18006G11KT 21/14 A2997 RMK A01 T02140144  RH  065%=      5-min Rain = 0
KCL1 131156Z 19009KT 21/14 A2997 RMK A01 T02130144  RH  065%=      5-min Rain = 0
KCL1 131157Z 18008KT 21/15 A2997 RMK A01 T02140145  RH  065%=      5-min Rain = 0
KCL1 131158Z 17007KT 22/15 A2997 RMK A01 T02160145  RH  064%=      5-min Rain = 0
KCL1 131159Z 17007KT 22/15 A2997 RMK A01 T02180145  RH  063%=      5-min Rain = 0
KCL1 131200Z 19006KT 22/15 A2997 RMK A01 T02180145  RH  063%=      5-min Rain = 0
KCL1 131201Z 18006KT 22/15 A2997 RMK A01 T02180145  RH  063%=      5-min Rain = 0
KCL1 131202Z 17009KT 22/15 A2997 RMK A01 T02180145  RH  063%=      5-min Rain = 0
KCL1 131203Z 19009KT 22/15 A2997 RMK A01 T02180145  RH  063%=      5-min Rain = 0
KCL1 131204Z 17006KT 22/15 A2997 RMK A01 T02180145  RH  063%=      5-min Rain = 0
KCL1 131205Z 17008KT 22/15 A2997 RMK A01 T02190145  RH  063%=      5-min Rain = 0
KCL1 131206Z 18008KT 22/15 A2997 RMK A01 T02190145  RH  063%=      5-min Rain = 0
KCL1 131207Z 17008KT 22/15 A2997 RMK A01 T02190146  RH  063%=      5-min Rain = 0
KCL1 131208Z 16009KT 22/15 A2997 RMK A01 T02190145  RH  063%=      5-min Rain = 0
KCL1 131209Z 17009KT 22/15 A2997 RMK A01 T02190146  RH  063%=      5-min Rain = 0
KCL1 131210Z 17008KT 22/15 A2997 RMK A01 T02200146  RH  063%=      5-min Rain = 0
KCL1 131211Z 18007KT 22/15 A2997 RMK A01 T02200146  RH  063%=      5-min Rain = 0
KCL1 131212Z 18009KT 22/15 A2997 RMK A01 T02200146  RH  063%=      5-min Rain = 0
KCL1 131213Z 17010KT 22/15 A2997 RMK A01 T02210146  RH  062%=      5-min Rain = 0
KCL1 131214Z 17008KT 22/15 A2997 RMK A01 T02210146  RH  062%=      5-min Rain = 0
KCL1 131215Z 18012G17KT 22/15 A2998 RMK A01 T02210146  RH  062%=      5-min Rain = 0
KCL1 131216Z 19011KT 22/15 A2998 RMK A01 T02220146  RH  062%=      5-min Rain = 0
KCL1 131217Z 18008KT 22/15 A2998 RMK A01 T02220146  RH  062%=      5-min Rain = 0
KCL1 131218Z 16007KT 22/15 A2998 RMK A01 T02220146  RH  062%=      5-min Rain = 0
KCL1 131219Z 18010G16KT 22/15 A2998 RMK A01 T02220146  RH  062%=      5-min Rain = 0
KCL1 131220Z 18011KT 22/15 A2998 RMK A01 T02210146  RH  062%=      5-min Rain = 0
KCL1 131221Z 18007KT 22/15 A2998 RMK A01 T02210146  RH  062%=      5-min Rain = 0
KCL1 131222Z 18006KT 22/15 A2998 RMK A01 T02210146  RH  062%=      5-min Rain = 0
KCL1 131223Z 17006KT 22/15 A2998 RMK A01 T02200146  RH  063%=      5-min Rain = 0
KCL1 131224Z 18006KT 22/15 A2998 RMK A01 T02190146  RH  063%=      5-min Rain = 0
KCL1 131225Z 16009KT 22/15 A2998 RMK A01 T02180146  RH  063%=      5-min Rain = 0
KCL1 131226Z 16008KT 22/15 A2998 RMK A01 T02180146  RH  063%=      5-min Rain = 0
KCL1 131227Z 17006KT 22/15 A2998 RMK A01 T02190146  RH  063%=      5-min Rain = 0
KCL1 131228Z 17007KT 22/15 A2998 RMK A01 T02190146  RH  063%=      5-min Rain = 0
KCL1 131229Z 17007KT 22/15 A2998 RMK A01 T02190146  RH  063%=      5-min Rain = 0
KCL1 131230Z 17009KT 22/15 A2998 RMK A01 T02180146  RH  063%=      5-min Rain = 0
KCL1 131231Z 18010KT 22/15 A2998 RMK A01 T02180146  RH  063%=      5-min Rain = 0
KCL1 131232Z 18008KT 22/15 A2998 RMK A01 T02190145  RH  063%=      5-min Rain = 0
KCL1 131233Z 18009KT 22/15 A2998 RMK A01 T02200145  RH  063%=      5-min Rain = 0
KCL1 131234Z 19011KT 22/15 A2998 RMK A01 T02200146  RH  063%=      5-min Rain = 0
KCL1 131235Z 18010KT 22/15 A2998 RMK A01 T02210146  RH  062%=      5-min Rain = 0
KCL1 131236Z 20008KT 22/15 A2998 RMK A01 T02210146  RH  062%=      5-min Rain = 0
KCL1 131237Z 18006KT 22/15 A2998 RMK A01 T02210145  RH  062%=      5-min Rain = 0
KCL1 131238Z 18008KT 22/15 A2998 RMK A01 T02210146  RH  062%=      5-min Rain = 0
KCL1 131239Z 18008KT 22/15 A2998 RMK A01 T02200146  RH  063%=      5-min Rain = 0
KCL1 131240Z 17006KT 22/15 A2998 RMK A01 T02200146  RH  063%=      5-min Rain = 0
KCL1 131241Z 18012KT 22/15 A2998 RMK A01 T02200146  RH  063%=      5-min Rain = 0
KCL1 131242Z 19011KT 22/15 A2998 RMK A01 T02210145  RH  062%=      5-min Rain = 0
KCL1 131243Z 19009KT 22/15 A2998 RMK A01 T02230145  RH  061%=      5-min Rain = 0
KCL1 131244Z 19010G15KT 22/15 A2998 RMK A01 T02240146  RH  061%=      5-min Rain = 0
KCL1 131245Z 20011KT 23/15 A2998 RMK A01 T02250146  RH  061%=      5-min Rain = 0
KCL1 131246Z 19011KT 23/15 A2998 RMK A01 T02260145  RH  060%=      5-min Rain = 0
KCL1 131247Z 19010KT 23/15 A2998 RMK A01 T02270146  RH  060%=      5-min Rain = 0
KCL1 131248Z 19010KT 23/15 A2998 RMK A01 T02270146  RH  060%=      5-min Rain = 0
KCL1 131249Z 18012KT 23/15 A2998 RMK A01 T02280146  RH  060%=      5-min Rain = 0
KCL1 131250Z 19015KT 23/15 A2998 RMK A01 T02280146  RH  060%=      5-min Rain = 0
KCL1 131251Z 19013KT 23/15 A2998 RMK A01 T02280146  RH  060%=      5-min Rain = 0
KCL1 131252Z 21007KT 23/15 A2998 RMK A01 T02280145  RH  060%=      5-min Rain = 0
KCL1 131253Z 20007KT 23/15 A2998 RMK A01 T02280146  RH  060%=      5-min Rain = 0
KCL1 131254Z 21006KT 23/15 A2998 RMK A01 T02280146  RH  060%=      5-min Rain = 0
KCL1 131255Z 21006KT 23/15 A2998 RMK A01 T02280146  RH  060%=      5-min Rain = 0
KCL1 131256Z 20008KT 23/15 A2998 RMK A01 T02280146  RH  060%=      5-min Rain = 0
KCL1 131257Z 19011KT 23/15 A2998 RMK A01 T02280146  RH  060%=      5-min Rain = 0
KCL1 131258Z 21009KT 23/15 A2998 RMK A01 T02290146  RH  059%=      5-min Rain = 0
KCL1 131259Z 19007KT 23/15 A2998 RMK A01 T02290146  RH  059%=      5-min Rain = 0
KCL1 131300Z 20009KT 23/15 A2998 RMK A01 T02290146  RH  059%=      5-min Rain = 0
KCL1 131301Z 20010KT 23/15 A2998 RMK A01 T02300146  RH  059%=      5-min Rain = 0
KCL1 131302Z 22009KT 23/15 A2998 RMK A01 T02290146  RH  059%=      5-min Rain = 0
KCL1 131303Z 22008KT 23/15 A2998 RMK A01 T02280146  RH  060%=      5-min Rain = 0
KCL1 131304Z 20006KT 23/15 A2998 RMK A01 T02280146  RH  060%=      5-min Rain = 0
KCL1 131305Z 20007KT 23/15 A2998 RMK A01 T02270146  RH  060%=      5-min Rain = 0
KCL1 131306Z 20007KT 23/15 A2998 RMK A01 T02270146  RH  060%=      5-min Rain = 0
KCL1 131307Z 19011KT 23/15 A2998 RMK A01 T02270146  RH  060%=      5-min Rain = 0
KCL1 131308Z 20011KT 23/15 A2998 RMK A01 T02270146  RH  060%=      5-min Rain = 0
KCL1 131309Z 20008KT 23/15 A2998 RMK A01 T02270146  RH  060%=      5-min Rain = 0
KCL1 131310Z 20008KT 23/15 A2998 RMK A01 T02270146  RH  060%=      5-min Rain = 0
KCL1 131311Z 21009KT 23/15 A2998 RMK A01 T02270146  RH  060%=      5-min Rain = 0
KCL1 131312Z 21011KT 23/15 A2998 RMK A01 T02270146  RH  060%=      5-min Rain = 0
KCL1 131313Z 21010KT 23/15 A2999 RMK A01 T02270146  RH  060%=      5-min Rain = 0
KCL1 131314Z 21008KT 23/15 A2999 RMK A01 T02270145  RH  060%=      5-min Rain = 0
KCL1 131315Z 21009KT 23/15 A2999 RMK A01 T02280146  RH  060%=      5-min Rain = 0
KCL1 131316Z 21009KT 23/15 A2999 RMK A01 T02280145  RH  060%=      5-min Rain = 0
KCL1 131317Z 20007KT 23/15 A2999 RMK A01 T02280146  RH  060%=      5-min Rain = 0
KCL1 131318Z 20010KT 23/15 A2999 RMK A01 T02280146  RH  060%=      5-min Rain = 0
KCL1 131319Z 19010KT 23/15 A2999 RMK A01 T02280146  RH  060%=      5-min Rain = 0
KCL1 131320Z 20009KT 23/15 A2999 RMK A01 T02280146  RH  060%=      5-min Rain = 0
KCL1 131321Z 21009KT 23/15 A2999 RMK A01 T02280146  RH  060%=      5-min Rain = 0
KCL1 131322Z 21009KT 23/15 A2999 RMK A01 T02290146  RH  060%=      5-min Rain = 0
KCL1 131323Z 20010KT 23/15 A2999 RMK A01 T02290146  RH  059%=      5-min Rain = 0
KCL1 131324Z 21010KT 23/15 A2999 RMK A01 T02290146  RH  059%=      5-min Rain = 0
KCL1 131325Z 19008KT 23/15 A2999 RMK A01 T02290146  RH  059%=      5-min Rain = 0
KCL1 131326Z 20009KT 23/15 A2999 RMK A01 T02300146  RH  059%=      5-min Rain = 0
KCL1 131327Z 19007KT 23/15 A2999 RMK A01 T02300146  RH  059%=      5-min Rain = 0
KCL1 131328Z 20008KT 23/15 A2999 RMK A01 T02300146  RH  059%=      5-min Rain = 0
KCL1 131329Z 21007KT 23/15 A2999 RMK A01 T02300146  RH  059%=      5-min Rain = 0
KCL1 131330Z 21005KT 23/15 A2999 RMK A01 T02300146  RH  059%=      5-min Rain = 0
KCL1 131331Z 19008KT 23/15 A2999 RMK A01 T02300147  RH  059%=      5-min Rain = 0
KCL1 131332Z 19008KT 23/15 A2999 RMK A01 T02300146  RH  059%=      5-min Rain = 0
KCL1 131333Z 20007KT 23/15 A2999 RMK A01 T02300146  RH  059%=      5-min Rain = 0
KCL1 131334Z 20010KT 23/15 A2999 RMK A01 T02300146  RH  059%=      5-min Rain = 0
KCL1 131335Z 20008KT 23/15 A2999 RMK A01 T02310146  RH  059%=      5-min Rain = 0
KCL1 131336Z 20008KT 23/15 A2999 RMK A01 T02310146  RH  059%=      5-min Rain = 0
KCL1 131337Z 19008KT 23/15 A2999 RMK A01 T02320147  RH  059%=      5-min Rain = 0
KCL1 131338Z 19008KT 23/15 A2999 RMK A01 T02320147  RH  059%=      5-min Rain = 0
KCL1 131339Z 19006KT 23/15 A2999 RMK A01 T02330147  RH  059%=      5-min Rain = 0
KCL1 131340Z 19005KT 23/15 A2999 RMK A01 T02330147  RH  059%=      5-min Rain = 0
KCL1 131341Z 20007KT 23/15 A2999 RMK A01 T02330147  RH  058%=      5-min Rain = 0
KCL1 131342Z 20007KT 23/15 A2999 RMK A01 T02330146  RH  058%=      5-min Rain = 0
KCL1 131343Z 20010KT 23/15 A2999 RMK A01 T02330147  RH  058%=      5-min Rain = 0
KCL1 131344Z 19010G15KT 23/15 A2999 RMK A01 T02330146  RH  058%=      5-min Rain = 0
KCL1 131345Z 19012KT 23/15 A2999 RMK A01 T02330146  RH  058%=      5-min Rain = 0
KCL1 131346Z 19011KT 23/15 A2999 RMK A01 T02340146  RH  058%=      5-min Rain = 0
KCL1 131347Z 19008KT 23/15 A2999 RMK A01 T02340146  RH  058%=      5-min Rain = 0
KCL1 131348Z 20006KT 23/15 A2999 RMK A01 T02340147  RH  058%=      5-min Rain = 0
KCL1 131349Z 19009G14KT 23/15 A2999 RMK A01 T02340147  RH  058%=      5-min Rain = 0
KCL1 131350Z 19010KT 23/15 A2999 RMK A01 T02340146  RH  058%=      5-min Rain = 0
KCL1 131351Z 18008KT 23/15 A2999 RMK A01 T02340147  RH  058%=      5-min Rain = 0
KCL1 131352Z 19008KT 23/15 A2999 RMK A01 T02340147  RH  058%=      5-min Rain = 0
KCL1 131353Z 19010KT 23/15 A2999 RMK A01 T02340146  RH  058%=      5-min Rain = 0
KCL1 131354Z 19010G15KT 24/15 A2999 RMK A01 T02350147  RH  058%=      5-min Rain = 0
KCL1 131355Z 19013KT 24/15 A2999 RMK A01 T02350147  RH  058%=      5-min Rain = 0
KCL1 131356Z 19010KT 24/15 A2999 RMK A01 T02350147  RH  058%=      5-min Rain = 0
KCL1 131357Z 18010KT 24/15 A2999 RMK A01 T02350147  RH  058%=      5-min Rain = 0
KCL1 131358Z 19012KT 24/15 A30 RMK A01 T02350147  RH  058%=      5-min Rain = 0
KCL1 131359Z 19009KT 24/15 A2999 RMK A01 T02350147  RH  058%=      5-min Rain = 0
KCL1 131400Z 19009KT 24/15 A2999 RMK A01 T02350147  RH  058%=      5-min Rain = 0
KCL1 131401Z 21007KT 23/15 A2999 RMK A01 T02340147  RH  058%=      5-min Rain = 0
KCL1 131402Z 20008G13KT 24/15 A2999 RMK A01 T02350147  RH  058%=      5-min Rain = 0
KCL1 131403Z 21008KT 23/15 A2999 RMK A01 T02340147  RH  058%=      5-min Rain = 0
KCL1 131404Z 20008KT 23/15 A2999 RMK A01 T02340147  RH  058%=      5-min Rain = 0
KCL1 131405Z 20010KT 23/15 A2999 RMK A01 T02340147  RH  058%=      5-min Rain = 0
KCL1 131406Z 19010KT 24/15 A2999 RMK A01 T02350147  RH  058%=      5-min Rain = 0
KCL1 131407Z 20010KT 24/15 A2999 RMK A01 T02360147  RH  057%=      5-min Rain = 0
KCL1 131408Z 20010KT 24/15 A2999 RMK A01 T02390148  RH  057%=      5-min Rain = 0
KCL1 131409Z 20010KT 24/15 A2999 RMK A01 T02410148  RH  056%=      5-min Rain = 0
KCL1 131410Z 20010KT 24/15 A2999 RMK A01 T02410148  RH  056%=      5-min Rain = 0
KCL1 131411Z 21007KT 24/15 A2999 RMK A01 T02430148  RH  056%=      5-min Rain = 0
KCL1 131412Z 20008KT 25/15 A2999 RMK A01 T02450149  RH  055%=      5-min Rain = 0
KCL1 131413Z 19011KT 25/15 A2999 RMK A01 T02460148  RH  054%=      5-min Rain = 0
KCL1 131414Z 19013KT 25/15 A2999 RMK A01 T02460148  RH  055%=      5-min Rain = 0
KCL1 131415Z 19014KT 24/15 A2999 RMK A01 T02440148  RH  055%=      5-min Rain = 0
KCL1 131416Z 20012KT 24/15 A2999 RMK A01 T02430147  RH  055%=      5-min Rain = 0
KCL1 131417Z 19011KT 24/15 A2999 RMK A01 T02430148  RH  055%=      5-min Rain = 0
KCL1 131418Z 20011KT 24/15 A2999 RMK A01 T02420147  RH  055%=      5-min Rain = 0
KCL1 131419Z 22010KT 24/15 A2999 RMK A01 T02410147  RH  056%=      5-min Rain = 0
KCL1 131420Z 22010KT 24/15 A2999 RMK A01 T02410147  RH  056%=      5-min Rain = 0
KCL1 131421Z 21009G15KT 24/15 A2999 RMK A01 T02410147  RH  056%=      5-min Rain = 0
KCL1 131422Z 21009G14KT 24/15 A2999 RMK A01 T02410148  RH  056%=      5-min Rain = 0
KCL1 131423Z 19011KT 24/15 A2999 RMK A01 T02410147  RH  056%=      5-min Rain = 0
KCL1 131424Z 20012KT 24/15 A2999 RMK A01 T02420148  RH  055%=      5-min Rain = 0
KCL1 131425Z 21014KT 24/15 A2999 RMK A01 T02420147  RH  055%=      5-min Rain = 0
KCL1 131426Z 21010KT 24/15 A2999 RMK A01 T02420147  RH  055%=      5-min Rain = 0
KCL1 131427Z 21010KT 24/15 A30 RMK A01 T02420147  RH  055%=      5-min Rain = 0
KCL1 131428Z 20009KT 24/15 A30 RMK A01 T02420147  RH  056%=      5-min Rain = 0
KCL1 131429Z 22008KT 24/15 A30 RMK A01 T02420148  RH  056%=      5-min Rain = 0
KCL1 131430Z 21011KT 24/15 A2999 RMK A01 T02420147  RH  055%=      5-min Rain = 0
KCL1 131431Z 21011KT 24/15 A30 RMK A01 T02430147  RH  055%=      5-min Rain = 0
KCL1 131432Z 20009KT 24/15 A30 RMK A01 T02420147  RH  055%=      5-min Rain = 0
KCL1 131433Z 22008KT 24/15 A30 RMK A01 T02430147  RH  055%=      5-min Rain = 0
KCL1 131434Z 20008KT 25/15 A30 RMK A01 T02450147  RH  055%=      5-min Rain = 0
KCL1 131435Z 22009KT 25/15 A30 RMK A01 T02450148  RH  054%=      5-min Rain = 0
KCL1 131436Z 21011KT 25/15 A2999 RMK A01 T02460147  RH  054%=      5-min Rain = 0
KCL1 131437Z 22012KT 25/15 A2999 RMK A01 T02470146  RH  053%=      5-min Rain = 0
KCL1 131438Z 21012KT 25/15 A2999 RMK A01 T02470147  RH  054%=      5-min Rain = 0
KCL1 131439Z 22012KT 25/15 A2999 RMK A01 T02470147  RH  054%=      5-min Rain = 0
KCL1 131440Z 22010KT 25/15 A30 RMK A01 T02460146  RH  054%=      5-min Rain = 0
KCL1 131441Z 21011KT 25/15 A30 RMK A01 T02470147  RH  054%=      5-min Rain = 0
KCL1 131442Z 20010KT 25/15 A30 RMK A01 T02470147  RH  054%=      5-min Rain = 0
KCL1 131443Z 20012KT 25/15 A30 RMK A01 T02470147  RH  054%=      5-min Rain = 0
KCL1 131444Z 20011KT 25/15 A2999 RMK A01 T02480147  RH  053%=      5-min Rain = 0
KCL1 131445Z 21009KT 25/15 A30 RMK A01 T02480147  RH  053%=      5-min Rain = 0
KCL1 131446Z 19013KT 25/15 A30 RMK A01 T02490148  RH  053%=      5-min Rain = 0
KCL1 131447Z 21010KT 25/15 A30 RMK A01 T02500148  RH  053%=      5-min Rain = 0
KCL1 131448Z 20011KT 25/15 A30 RMK A01 T02500147  RH  053%=      5-min Rain = 0
KCL1 131449Z 19013G18KT 25/15 A2999 RMK A01 T02500147  RH  053%=      5-min Rain = 0
KCL1 131450Z 20010G15KT 25/15 A30 RMK A01 T02500147  RH  053%=      5-min Rain = 0
KCL1 131451Z 20010KT 25/15 A30 RMK A01 T02510148  RH  053%=      5-min Rain = 0
KCL1 131452Z 19009KT 25/15 A30 RMK A01 T02510148  RH  053%=      5-min Rain = 0
KCL1 131453Z 19010KT 25/15 A30 RMK A01 T02520148  RH  053%=      5-min Rain = 0
KCL1 131454Z 19010KT 25/15 A30 RMK A01 T02520147  RH  052%=      5-min Rain = 0
KCL1 131455Z 18010KT 25/15 A30 RMK A01 T02530147  RH  052%=      5-min Rain = 0
KCL1 131456Z 19008KT 25/15 A30 RMK A01 T02530149  RH  052%=      5-min Rain = 0
KCL1 131457Z 21009KT 25/15 A30 RMK A01 T02540148  RH  052%=      5-min Rain = 0
KCL1 131458Z 21008KT 26/15 A30 RMK A01 T02550148  RH  052%=      5-min Rain = 0
KCL1 131459Z 20009KT 26/15 A30 RMK A01 T02550146  RH  051%=      5-min Rain = 0
KCL1 131500Z 20010KT 26/15 A30 RMK A01 T02550147  RH  051%=      5-min Rain = 0
KCL1 131501Z 19009KT 26/15 A30 RMK A01 T02550148  RH  051%=      5-min Rain = 0
KCL1 131502Z 20011KT 26/15 A30 RMK A01 T02550147  RH  051%=      5-min Rain = 0
KCL1 131503Z 19009KT 26/15 A30 RMK A01 T02550147  RH  051%=      5-min Rain = 0
KCL1 131504Z 20010KT 26/15 A30 RMK A01 T02550147  RH  051%=      5-min Rain = 0
KCL1 131505Z 20008KT 26/15 A30 RMK A01 T02560146  RH  051%=      5-min Rain = 0
KCL1 131506Z 20011KT 26/15 A30 RMK A01 T02570146  RH  050%=      5-min Rain = 0
KCL1 131507Z 21008KT 26/15 A30 RMK A01 T02570145  RH  050%=      5-min Rain = 0
KCL1 131508Z 21007KT 26/15 A30 RMK A01 T02570145  RH  050%=      5-min Rain = 0
KCL1 131509Z 21008KT 26/15 A30 RMK A01 T02590146  RH  050%=      5-min Rain = 0
KCL1 131510Z 21008KT 26/14 A30 RMK A01 T02610142  RH  048%=      5-min Rain = 0
KCL1 131511Z 18011KT 26/14 A30 RMK A01 T02620144  RH  048%=      5-min Rain = 0
KCL1 131512Z 18007G12KT 26/14 A30 RMK A01 T02620143  RH  048%=      5-min Rain = 0
KCL1 131513Z 20007KT 27/15 A30 RMK A01 T02660146  RH  048%=      5-min Rain = 0
KCL1 131514Z 19009KT 27/14 A2999 RMK A01 T02680144  RH  047%=      5-min Rain = 0
KCL1 131515Z 19012G18KT 27/14 A2999 RMK A01 T02680141  RH  046%=      5-min Rain = 0
KCL1 131516Z 20014KT 27/14 A2999 RMK A01 T02680140  RH  045%=      5-min Rain = 0
KCL1 131517Z 20011KT 27/14 A2999 RMK A01 T02660139  RH  046%=      5-min Rain = 0
KCL1 131518Z 20008KT 27/14 A2999 RMK A01 T02650139  RH  046%=      5-min Rain = 0
KCL1 131519Z 21008KT 27/14 A2999 RMK A01 T02670140  RH  046%=      5-min Rain = 0
KCL1 131520Z 21007KT 27/14 A2999 RMK A01 T02680140  RH  045%=      5-min Rain = 0
KCL1 131521Z 23007KT 27/14 A2999 RMK A01 T02690141  RH  045%=      5-min Rain = 0
KCL1 131522Z 23007KT 27/14 A2999 RMK A01 T02690142  RH  045%=      5-min Rain = 0
KCL1 131523Z 22008KT 27/14 A2999 RMK A01 T02710142  RH  045%=      5-min Rain = 0
KCL1 131524Z 22008KT 27/14 A2999 RMK A01 T02720139  RH  044%=      5-min Rain = 0
KCL1 131525Z 22008G14KT 27/14 A2999 RMK A01 T02730139  RH  044%=      5-min Rain = 0
KCL1 131526Z 20008G14KT 27/14 A2999 RMK A01 T02740140  RH  044%=      5-min Rain = 0
KCL1 131527Z 19009KT 28/14 A2999 RMK A01 T02760138  RH  043%=      5-min Rain = 0
KCL1 131528Z 20008KT 28/14 A2999 RMK A01 T02760138  RH  043%=      5-min Rain = 0
KCL1 131529Z 20011KT 28/14 A2999 RMK A01 T02780137  RH  042%=      5-min Rain = 0
KCL1 131530Z 20008KT 28/14 A2999 RMK A01 T02780137  RH  042%=      5-min Rain = 0
KCL1 131531Z 21007KT 28/14 A2999 RMK A01 T02790139  RH  042%=      5-min Rain = 0
KCL1 131532Z 23008KT 28/14 A2999 RMK A01 T02810138  RH  041%=      5-min Rain = 0
KCL1 131533Z 18009KT 28/14 A2999 RMK A01 T02830138  RH  041%=      5-min Rain = 0
KCL1 131534Z 19008KT 28/14 A2999 RMK A01 T02840139  RH  041%=      5-min Rain = 0
KCL1 131535Z 19009KT 29/14 A2999 RMK A01 T02850137  RH  040%=      5-min Rain = 0
KCL1 131536Z 22007KT 29/14 A2999 RMK A01 T02850138  RH  040%=      5-min Rain = 0
KCL1 131537Z 24008KT 29/13 A2999 RMK A01 T02870134  RH  039%=      5-min Rain = 0
KCL1 131538Z 25008KT 29/13 A2999 RMK A01 T02870130  RH  038%=      5-min Rain = 0
KCL1 131539Z 23008KT 29/13 A2999 RMK A01 T02870128  RH  038%=      5-min Rain = 0
KCL1 131540Z 21009KT 29/13 A2999 RMK A01 T02880125  RH  036%=      5-min Rain = 0
KCL1 131541Z 21011KT 29/12 A2999 RMK A01 T02890122  RH  036%=      5-min Rain = 0
KCL1 131542Z 20007KT 29/12 A2999 RMK A01 T02870119  RH  035%=      5-min Rain = 0
KCL1 131543Z 24007KT 29/12 A2999 RMK A01 T02860121  RH  036%=      5-min Rain = 0
KCL1 131544Z 21010G15KT 29/12 A2999 RMK A01 T02860123  RH  036%=      5-min Rain = 0
KCL1 131545Z 19010KT 29/12 A2999 RMK A01 T02870121  RH  036%=      5-min Rain = 0
KCL1 131546Z 21009G16KT 29/12 A2999 RMK A01 T02880124  RH  036%=      5-min Rain = 0
KCL1 131547Z 21011KT 29/13 A2999 RMK A01 T02900126  RH  036%=      5-min Rain = 0
KCL1 131548Z 22009KT 29/13 A2999 RMK A01 T02910125  RH  036%=      5-min Rain = 0
KCL1 131549Z 23012KT 29/13 A2999 RMK A01 T02890125  RH  036%=      5-min Rain = 0
KCL1 131550Z 22009G14KT 28/12 A2999 RMK A01 T02840124  RH  037%=      5-min Rain = 0
KCL1 131551Z 25007G12KT 28/12 A2999 RMK A01 T02820123  RH  038%=      5-min Rain = 0
KCL1 131552Z 21006KT 28/13 A2999 RMK A01 T02810126  RH  038%=      5-min Rain = 0
KCL1 131553Z 22006KT 28/13 A2999 RMK A01 T02830126  RH  038%=      5-min Rain = 0
KCL1 131554Z 22012KT 29/12 A2999 RMK A01 T02850120  RH  036%=      5-min Rain = 0
KCL1 131555Z 21008KT 29/11 A2999 RMK A01 T02860114  RH  034%=      5-min Rain = 0
KCL1 131556Z 22006KT 29/12 A2999 RMK A01 T02850116  RH  035%=      5-min Rain = 0
KCL1 131557Z 21007KT 29/12 A2999 RMK A01 T02870117  RH  035%=      5-min Rain = 0
KCL1 131558Z 21009KT 29/12 A2999 RMK A01 T02880117  RH  035%=      5-min Rain = 0
KCL1 131559Z 23007KT 29/12 A2999 RMK A01 T02870118  RH  035%=      5-min Rain = 0
KCL1 131600Z 23004KT 29/12 A2999 RMK A01 T02860117  RH  035%=      5-min Rain = 0
KCL1 131601Z 25004KT 29/12 A2999 RMK A01 T02860118  RH  035%=      5-min Rain = 0
KCL1 131602Z 19005G10KT 29/12 A2999 RMK A01 T02860118  RH  035%=      5-min Rain = 0
KCL1 131603Z 21006KT 29/11 A2999 RMK A01 T02890114  RH  034%=      5-min Rain = 0
KCL1 131604Z 20007KT 29/12 A2999 RMK A01 T02920117  RH  034%=      5-min Rain = 0
KCL1 131605Z 21009G14KT 29/12 A2999 RMK A01 T02930116  RH  034%=      5-min Rain = 0
KCL1 131606Z 21008KT 29/12 A2999 RMK A01 T02930116  RH  033%=      5-min Rain = 0
KCL1 131607Z 24008G13KT 29/11 A2999 RMK A01 T02930114  RH  033%=      5-min Rain = 0
KCL1 131608Z 25006KT 29/11 A2999 RMK A01 T02940110  RH  032%=      5-min Rain = 0
KCL1 131609Z 26007KT 30/11 A2999 RMK A01 T02960109  RH  031%=      5-min Rain = 0
KCL1 131610Z 24009KT 30/11 A2999 RMK A01 T02970110  RH  031%=      5-min Rain = 0
KCL1 131611Z 22010G15KT 30/11 A2999 RMK A01 T02960111  RH  032%=      5-min Rain = 0
KCL1 131612Z 23009KT 29/11 A2999 RMK A01 T02940112  RH  032%=      5-min Rain = 0
KCL1 131613Z 18010KT 29/11 A2999 RMK A01 T02930112  RH  033%=      5-min Rain = 0
KCL1 131614Z 18006KT 30/11 A2999 RMK A01 T02950113  RH  032%=      5-min Rain = 0
KCL1 131615Z 18006KT 30/11 A2999 RMK A01 T02970114  RH  032%=      5-min Rain = 0
KCL1 131616Z 19007KT 30/11 A2999 RMK A01 T02990112  RH  032%=      5-min Rain = 0
KCL1 131617Z 21010KT 30/11 A2999 RMK A01 T03000111  RH  031%=      5-min Rain = 0
KCL1 131618Z 22010KT 30/11 A2999 RMK A01 T02990107  RH  031%=      5-min Rain = 0
KCL1 131619Z 24011KT 30/11 A2999 RMK A01 T02970105  RH  030%=      5-min Rain = 0
KCL1 131620Z 26010KT 30/10 A2999 RMK A01 T02960102  RH  030%=      5-min Rain = 0
KCL1 131621Z 27009KT 30/10 A2999 RMK A01 T02960101  RH  030%=      5-min Rain = 0
KCL1 131622Z 26009KT 30/10 A2999 RMK A01 T02970101  RH  030%=      5-min Rain = 0
KCL1 131623Z 22007KT 30/10 A2999 RMK A01 T02990101  RH  029%=      5-min Rain = 0
KCL1 131624Z 24010KT 30/10 A2999 RMK A01 T03010099  RH  028%=      5-min Rain = 0
KCL1 131625Z 22009G14KT 30/10 A2999 RMK A01 T03010095  RH  028%=      5-min Rain = 0
KCL1 131626Z 22008KT 30/09 A2999 RMK A01 T02990094  RH  028%=      5-min Rain = 0
KCL1 131627Z 22008KT 30/09 A2999 RMK A01 T02980091  RH  028%=      5-min Rain = 0
KCL1 131628Z 23006KT 30/09 A2999 RMK A01 T02960093  RH  028%=      5-min Rain = 0
KCL1 131629Z 22008G13KT 30/09 A2999 RMK A01 T02960094  RH  028%=      5-min Rain = 0
KCL1 131630Z 23012KT 30/09 A2999 RMK A01 T02960091  RH  028%=      5-min Rain = 0
KCL1 131631Z 25009KT 30/09 A2999 RMK A01 T02950090  RH  028%=      5-min Rain = 0
KCL1 131632Z 24006KT 29/09 A2999 RMK A01 T02940090  RH  028%=      5-min Rain = 0
KCL1 131633Z 26002KT 29/09 A2999 RMK A01 T02930090  RH  028%=      5-min Rain = 0
KCL1 131634Z 23006KT 29/09 A2999 RMK A01 T02940091  RH  028%=      5-min Rain = 0
KCL1 131635Z 21006KT 30/09 A2999 RMK A01 T02950089  RH  028%=      5-min Rain = 0
KCL1 131636Z 26006KT 30/09 A2999 RMK A01 T02960089  RH  027%=      5-min Rain = 0
KCL1 131637Z 26006KT 30/09 A2999 RMK A01 T02960089  RH  027%=      5-min Rain = 0
KCL1 131638Z 24011KT 30/09 A2999 RMK A01 T02980085  RH  026%=      5-min Rain = 0
KCL1 131639Z 24009KT 30/08 A2999 RMK A01 T02980083  RH  026%=      5-min Rain = 0
KCL1 131640Z 25004KT 30/08 A2999 RMK A01 T02950082  RH  026%=      5-min Rain = 0
KCL1 131641Z 25006KT 30/08 A2999 RMK A01 T02950084  RH  027%=      5-min Rain = 0
KCL1 131642Z 22007KT 30/08 A2999 RMK A01 T02950081  RH  026%=      5-min Rain = 0
KCL1 131643Z 22008KT 30/08 A2999 RMK A01 T02960080  RH  026%=      5-min Rain = 0
KCL1 131644Z 25007KT 30/08 A2999 RMK A01 T02970080  RH  026%=      5-min Rain = 0
KCL1 131645Z 26008KT 30/08 A2999 RMK A01 T02990080  RH  025%=      5-min Rain = 0
KCL1 131646Z 27008KT 30/08 A2999 RMK A01 T03000079  RH  025%=      5-min Rain = 0
KCL1 131647Z 26010KT 30/08 A2999 RMK A01 T03000076  RH  025%=      5-min Rain = 0
KCL1 131648Z 26008KT 30/08 A2999 RMK A01 T03010076  RH  024%=      5-min Rain = 0
KCL1 131649Z 26008KT 30/08 A2999 RMK A01 T03030076  RH  024%=      5-min Rain = 0
KCL1 131650Z 26006KT 30/08 A2999 RMK A01 T03040076  RH  024%=      5-min Rain = 0
KCL1 131651Z 26007KT 30/08 A2999 RMK A01 T03030076  RH  024%=      5-min Rain = 0
KCL1 131652Z 23008KT 30/08 A2999 RMK A01 T03020077  RH  025%=      5-min Rain = 0
KCL1 131653Z 22011KT 30/08 A2999 RMK A01 T03010076  RH  025%=      5-min Rain = 0
KCL1 131654Z 23008KT 30/08 A2999 RMK A01 T03000077  RH  025%=      5-min Rain = 0
KCL1 131655Z 21009G14KT 30/08 A2999 RMK A01 T03000077  RH  025%=      5-min Rain = 0
KCL1 131656Z 24008KT 30/08 A2999 RMK A01 T03010079  RH  025%=      5-min Rain = 0
KCL1 131657Z 24010KT 30/08 A2999 RMK A01 T03030078  RH  025%=      5-min Rain = 0
KCL1 131658Z 26008KT 30/08 A2999 RMK A01 T03040077  RH  024%=      5-min Rain = 0
KCL1 131659Z 25006KT 31/08 A2999 RMK A01 T03050079  RH  024%=      5-min Rain = 0
KCL1 131700Z 24006KT 31/08 A2999 RMK A01 T03060076  RH  024%=      5-min Rain = 0
KCL1 131701Z 26005KT 31/08 A2999 RMK A01 T03070076  RH  024%=      5-min Rain = 0
KCL1 131702Z 24004G9KT 31/08 A2999 RMK A01 T03070078  RH  024%=      5-min Rain = 0
KCL1 131703Z 24011KT 31/08 A2999 RMK A01 T03080077  RH  024%=      5-min Rain = 0
KCL1 131704Z 20009KT 31/07 A2999 RMK A01 T03080073  RH  023%=      5-min Rain = 0
KCL1 131705Z 21006G11KT 31/07 A2999 RMK A01 T03080073  RH  023%=      5-min Rain = 0
KCL1 131706Z 21008KT 31/08 A2999 RMK A01 T03080075  RH  023%=      5-min Rain = 0
KCL1 131707Z 21009KT 31/07 A2998 RMK A01 T03100073  RH  023%=      5-min Rain = 0
KCL1 131708Z 22010KT 31/08 A2998 RMK A01 T03110075  RH  023%=      5-min Rain = 0
KCL1 131709Z 23009KT 31/08 A2998 RMK A01 T03110076  RH  023%=      5-min Rain = 0
KCL1 131710Z 22009KT 31/07 A2998 RMK A01 T03120074  RH  023%=      5-min Rain = 0
KCL1 131711Z 22008KT 31/07 A2998 RMK A01 T03110071  RH  022%=      5-min Rain = 0
KCL1 131712Z 22007KT 31/07 A2998 RMK A01 T03100070  RH  022%=      5-min Rain = 0
KCL1 131713Z 24007KT 31/07 A2998 RMK A01 T03100072  RH  023%=      5-min Rain = 0
KCL1 131714Z 26007KT 31/07 A2998 RMK A01 T03130069  RH  022%=      5-min Rain = 0
KCL1 131715Z 25004KT 31/07 A2998 RMK A01 T03130071  RH  022%=      5-min Rain = 0
KCL1 131716Z 24004KT 31/07 A2998 RMK A01 T03140072  RH  022%=      5-min Rain = 0
KCL1 131717Z 24003KT 31/07 A2998 RMK A01 T03130073  RH  022%=      5-min Rain = 0
KCL1 131718Z 21003KT 31/07 A2998 RMK A01 T03130073  RH  022%=      5-min Rain = 0
KCL1 131719Z 20007KT 31/07 A2998 RMK A01 T03140073  RH  022%=      5-min Rain = 0
KCL1 131720Z 21010G15KT 31/07 A2998 RMK A01 T03130066  RH  021%=      5-min Rain = 0
KCL1 131721Z 21012KT 31/06 A2998 RMK A01 T03120062  RH  021%=      5-min Rain = 0
KCL1 131722Z 23008KT 31/06 A2998 RMK A01 T03110060  RH  021%=      5-min Rain = 0
KCL1 131723Z 26007KT 31/06 A2998 RMK A01 T03110061  RH  021%=      5-min Rain = 0
KCL1 131724Z 26006KT 31/06 A2998 RMK A01 T03130061  RH  021%=      5-min Rain = 0
KCL1 131725Z 24008KT 32/06 A2998 RMK A01 T03170061  RH  020%=      5-min Rain = 0
KCL1 131726Z 21005KT 32/06 A2998 RMK A01 T03180057  RH  019%=      5-min Rain = 0
KCL1 131727Z 20004KT 32/06 A2998 RMK A01 T03170055  RH  019%=      5-min Rain = 0
KCL1 131728Z 22004KT 32/06 A2998 RMK A01 T03160057  RH  020%=      5-min Rain = 0
KCL1 131729Z 25010KT 32/06 A2998 RMK A01 T03180058  RH  020%=      5-min Rain = 0
KCL1 131730Z 25008KT 32/05 A2998 RMK A01 T03220048  RH  018%=      5-min Rain = 0
KCL1 131731Z 23009KT 32/05 A2998 RMK A01 T03210045  RH  018%=      5-min Rain = 0
KCL1 131732Z 25005KT 32/05 A2998 RMK A01 T03180045  RH  018%=      5-min Rain = 0
KCL1 131733Z 26008KT 32/05 A2998 RMK A01 T03190045  RH  018%=      5-min Rain = 0
KCL1 131734Z 24007KT 32/05 A2998 RMK A01 T03190047  RH  018%=      5-min Rain = 0
KCL1 131735Z 25003KT 32/04 A2998 RMK A01 T03200043  RH  018%=      5-min Rain = 0
KCL1 131736Z 31001KT 32/04 A2998 RMK A01 T03170041  RH  018%=      5-min Rain = 0
KCL1 131737Z 22005KT 32/04 A2998 RMK A01 T03160043  RH  018%=      5-min Rain = 0
KCL1 131738Z 20007KT 32/05 A2998 RMK A01 T03160045  RH  018%=      5-min Rain = 0
KCL1 131739Z 22006KT 32/05 A2998 RMK A01 T03170049  RH  019%=      5-min Rain = 0
KCL1 131740Z 23007KT 32/05 A2998 RMK A01 T03160047  RH  018%=      5-min Rain = 0
KCL1 131741Z 20006KT 32/05 A2998 RMK A01 T03180048  RH  018%=      5-min Rain = 0
KCL1 131742Z 19005KT 32/05 A2998 RMK A01 T03210047  RH  018%=      5-min Rain = 0
KCL1 131743Z 20003KT 32/04 A2998 RMK A01 T03210043  RH  017%=      5-min Rain = 0
KCL1 131744Z 23005KT 32/04 A2998 RMK A01 T03210043  RH  017%=      5-min Rain = 0
KCL1 131745Z 22006KT 32/04 A2998 RMK A01 T03200044  RH  018%=      5-min Rain = 0
KCL1 131746Z 23008KT 32/05 A2998 RMK A01 T03210045  RH  018%=      5-min Rain = 0
KCL1 131747Z 24007KT 32/05 A2998 RMK A01 T03220047  RH  018%=      5-min Rain = 0
KCL1 131748Z 25005KT 32/04 A2998 RMK A01 T03220044  RH  017%=      5-min Rain = 0
KCL1 131749Z 27007KT 32/05 A2998 RMK A01 T03220047  RH  018%=      5-min Rain = 0
KCL1 131750Z 25005KT 32/05 A2998 RMK A01 T03230050  RH  018%=      5-min Rain = 0
KCL1 131751Z 27005KT 33/05 A2997 RMK A01 T03260049  RH  018%=      5-min Rain = 0
KCL1 131752Z 27002KT 33/05 A2997 RMK A01 T03260050  RH  018%=      5-min Rain = 0
KCL1 131753Z 28005KT 33/05 A2997 RMK A01 T03260052  RH  018%=      5-min Rain = 0
KCL1 131754Z 22007KT 33/05 A2997 RMK A01 T03260052  RH  018%=      5-min Rain = 0
KCL1 131755Z 22007KT 33/05 A2997 RMK A01 T03250049  RH  018%=      5-min Rain = 0
KCL1 131756Z 23007KT 32/05 A2997 RMK A01 T03230048  RH  018%=      5-min Rain = 0
KCL1 131757Z 21009G16KT 32/05 A2997 RMK A01 T03220047  RH  018%=      5-min Rain = 0
KCL1 131758Z 22010KT 32/04 A2997 RMK A01 T03220043  RH  017%=      5-min Rain = 0
KCL1 131759Z 23008KT 32/04 A2997 RMK A01 T03230037  RH  016%=      5-min Rain = 0
KCL1 131800Z 25008KT 32/04 A2997 RMK A01 T03230037  RH  016%=      5-min Rain = 0
KCL1 131801Z 22006KT 32/04 A2997 RMK A01 T03240038  RH  016%=      5-min Rain = 0
KCL1 131802Z 23009KT 33/04 A2997 RMK A01 T03260038  RH  016%=      5-min Rain = 0
KCL1 131803Z 19006KT 33/03 A2997 RMK A01 T03310028  RH  015%=      5-min Rain = 0
KCL1 131804Z 19005KT 33/02 A2997 RMK A01 T03290022  RH  014%=      5-min Rain = 0
KCL1 131805Z 23005KT 33/03 A2997 RMK A01 T03260029  RH  015%=      5-min Rain = 0
KCL1 131806Z 24005KT 33/03 A2997 RMK A01 T03260033  RH  016%=      5-min Rain = 0
KCL1 131807Z 22008KT 33/04 A2997 RMK A01 T03260037  RH  016%=      5-min Rain = 0
KCL1 131808Z 21008KT 33/04 A2997 RMK A01 T03280039  RH  016%=      5-min Rain = 0
KCL1 131809Z 19006KT 33/04 A2997 RMK A01 T03270041  RH  017%=      5-min Rain = 0
KCL1 131810Z 23006KT 33/05 A2997 RMK A01 T03260045  RH  017%=      5-min Rain = 0
KCL1 131811Z 25006KT 33/05 A2997 RMK A01 T03270049  RH  018%=      5-min Rain = 0
KCL1 131812Z 22003KT 32/05 A2997 RMK A01 T03240048  RH  018%=      5-min Rain = 0
KCL1 131813Z 20003KT 32/05 A2997 RMK A01 T03210047  RH  018%=      5-min Rain = 0
KCL1 131814Z 21004KT 32/05 A2997 RMK A01 T03190048  RH  018%=      5-min Rain = 0
KCL1 131815Z 21002KT 32/05 A2997 RMK A01 T03180049  RH  018%=      5-min Rain = 0
KCL1 131816Z 23003G8KT 32/05 A2997 RMK A01 T03200048  RH  018%=      5-min Rain = 0
KCL1 131817Z 23011KT 32/04 A2997 RMK A01 T03210043  RH  017%=      5-min Rain = 0
KCL1 131818Z 22008KT 32/04 A2997 RMK A01 T03190038  RH  017%=      5-min Rain = 0
KCL1 131819Z 22006KT 32/04 A2997 RMK A01 T03160037  RH  017%=      5-min Rain = 0
KCL1 131820Z 21008KT 32/04 A2997 RMK A01 T03160035  RH  017%=      5-min Rain = 0
KCL1 131821Z 22008KT 32/03 A2997 RMK A01 T03190033  RH  016%=      5-min Rain = 0
KCL1 131822Z 19008KT 32/04 A2997 RMK A01 T03220037  RH  016%=      5-min Rain = 0
KCL1 131823Z 20008KT 32/04 A2997 RMK A01 T03240037  RH  016%=      5-min Rain = 0
KCL1 131824Z 17007KT 32/04 A2997 RMK A01 T03220038  RH  017%=      5-min Rain = 0
KCL1 131825Z 21006KT 32/04 A2997 RMK A01 T03200041  RH  017%=      5-min Rain = 0
KCL1 131826Z 25006G11KT 32/03 A2997 RMK A01 T03220034  RH  016%=      5-min Rain = 0
KCL1 131827Z 23006KT 32/03 A2997 RMK A01 T03200034  RH  016%=      5-min Rain = 0
KCL1 131828Z 24005KT 32/04 A2997 RMK A01 T03190038  RH  017%=      5-min Rain = 0
KCL1 131829Z 23007KT 32/04 A2997 RMK A01 T03190041  RH  017%=      5-min Rain = 0
KCL1 131830Z 23006KT 32/04 A2997 RMK A01 T03200043  RH  018%=      5-min Rain = 0
KCL1 131831Z 20005KT 32/04 A2997 RMK A01 T03180044  RH  018%=      5-min Rain = 0
KCL1 131832Z 19002KT 32/05 A2997 RMK A01 T03180045  RH  018%=      5-min Rain = 0
KCL1 131833Z 27001KT 32/05 A2997 RMK A01 T03180049  RH  018%=      5-min Rain = 0
KCL1 131834Z 27005KT 32/05 A2996 RMK A01 T03180049  RH  018%=      5-min Rain = 0
KCL1 131835Z 25008KT 32/05 A2996 RMK A01 T03190047  RH  018%=      5-min Rain = 0
KCL1 131836Z 23005KT 32/05 A2996 RMK A01 T03190047  RH  018%=      5-min Rain = 0
KCL1 131837Z 22006KT 32/05 A2996 RMK A01 T03190048  RH  018%=      5-min Rain = 0
KCL1 131838Z 23008KT 32/05 A2996 RMK A01 T03210046  RH  018%=      5-min Rain = 0
KCL1 131839Z 26005KT 32/05 A2996 RMK A01 T03210047  RH  018%=      5-min Rain = 0
KCL1 131840Z 27010KT 32/05 A2996 RMK A01 T03240045  RH  017%=      5-min Rain = 0
KCL1 131841Z 25011KT 33/05 A2996 RMK A01 T03260046  RH  017%=      5-min Rain = 0
KCL1 131842Z 27006KT 33/05 A2996 RMK A01 T03250045  RH  017%=      5-min Rain = 0
KCL1 131843Z 27007KT 32/05 A2996 RMK A01 T03230047  RH  018%=      5-min Rain = 0
KCL1 131844Z 24005KT 33/05 A2996 RMK A01 T03270049  RH  018%=      5-min Rain = 0
KCL1 131845Z 23007KT 33/05 A2996 RMK A01 T03310050  RH  017%=      5-min Rain = 0
KCL1 131846Z 24006KT 33/05 A2996 RMK A01 T03340052  RH  017%=      5-min Rain = 0
KCL1 131847Z 21008KT 34/05 A2996 RMK A01 T03350053  RH  017%=      5-min Rain = 0
KCL1 131848Z 21007KT 34/05 A2996 RMK A01 T03350050  RH  017%=      5-min Rain = 0
KCL1 131849Z 23006KT 33/05 A2996 RMK A01 T03320050  RH  017%=      5-min Rain = 0
KCL1 131850Z 24007KT 33/05 A2996 RMK A01 T03310050  RH  017%=      5-min Rain = 0
KCL1 131851Z 21005KT 33/05 A2996 RMK A01 T03300048  RH  017%=      5-min Rain = 0
KCL1 131852Z 20010KT 33/05 A2996 RMK A01 T03290049  RH  017%=      5-min Rain = 0
KCL1 131853Z 21009KT 33/05 A2996 RMK A01 T03270047  RH  017%=      5-min Rain = 0
KCL1 131854Z 21009KT 32/05 A2996 RMK A01 T03240048  RH  018%=      5-min Rain = 0
KCL1 131855Z 22011KT 32/05 A2996 RMK A01 T03240047  RH  018%=      5-min Rain = 0
KCL1 131856Z 22009KT 32/05 A2996 RMK A01 T03230046  RH  018%=      5-min Rain = 0
KCL1 131857Z 22008KT 32/05 A2996 RMK A01 T03230047  RH  018%=      5-min Rain = 0
KCL1 131858Z 19005KT 33/05 A2996 RMK A01 T03260046  RH  017%=      5-min Rain = 0
KCL1 131859Z 23006KT 33/05 A2996 RMK A01 T03280049  RH  017%=      5-min Rain = 0
KCL1 131900Z 24006KT 33/05 A2995 RMK A01 T03310048  RH  017%=      5-min Rain = 0
KCL1 131901Z 24004KT 33/05 A2995 RMK A01 T03330049  RH  017%=      5-min Rain = 0
KCL1 131902Z 23003KT 33/05 A2995 RMK A01 T03330048  RH  017%=      5-min Rain = 0
KCL1 131903Z 19004KT 33/05 A2995 RMK A01 T03330046  RH  017%=      5-min Rain = 0
KCL1 131904Z 16006KT 33/05 A2995 RMK A01 T03320049  RH  017%=      5-min Rain = 0
KCL1 131905Z 17009KT 33/05 A2995 RMK A01 T03320049  RH  017%=      5-min Rain = 0
KCL1 131906Z 17005KT 33/05 A2995 RMK A01 T03340050  RH  017%=      5-min Rain = 0
KCL1 131907Z 14004KT 33/05 A2995 RMK A01 T03330050  RH  017%=      5-min Rain = 0
KCL1 131908Z 16005KT 33/05 A2995 RMK A01 T03340053  RH  017%=      5-min Rain = 0
KCL1 131909Z 22004KT 33/05 A2995 RMK A01 T03340049  RH  017%=      5-min Rain = 0
KCL1 131910Z 18009G14KT 33/05 A2995 RMK A01 T03330050  RH  017%=      5-min Rain = 0
KCL1 131911Z 18008KT 34/05 A2995 RMK A01 T03350054  RH  017%=      5-min Rain = 0
KCL1 131912Z 16013KT 34/05 A2995 RMK A01 T03390053  RH  017%=      5-min Rain = 0
KCL1 131913Z 16012KT 34/05 A2995 RMK A01 T03390051  RH  017%=      5-min Rain = 0
KCL1 131914Z 17011KT 34/05 A2995 RMK A01 T03360051  RH  017%=      5-min Rain = 0
KCL1 131915Z 16011KT 34/05 A2995 RMK A01 T03360051  RH  017%=      5-min Rain = 0
KCL1 131916Z 17010KT 34/05 A2995 RMK A01 T03370050  RH  017%=      5-min Rain = 0
KCL1 131917Z 17008KT 34/05 A2995 RMK A01 T03370052  RH  017%=      5-min Rain = 0
KCL1 131918Z 17010KT 34/05 A2995 RMK A01 T03370053  RH  017%=      5-min Rain = 0
KCL1 131919Z 18007KT 34/05 A2995 RMK A01 T03360053  RH  017%=      5-min Rain = 0
KCL1 131920Z 20006G13KT 34/05 A2995 RMK A01 T03360053  RH  017%=      5-min Rain = 0
KCL1 131921Z 21009KT 34/05 A2995 RMK A01 T03360050  RH  017%=      5-min Rain = 0
KCL1 131922Z 22009KT 34/05 A2995 RMK A01 T03360048  RH  017%=      5-min Rain = 0
KCL1 131923Z 21005KT 33/05 A2995 RMK A01 T03330046  RH  017%=      5-min Rain = 0
KCL1 131924Z 15008G13KT 33/05 A2995 RMK A01 T03300051  RH  017%=      5-min Rain = 0
KCL1 131925Z 14014KT 33/05 A2994 RMK A01 T03320052  RH  017%=      5-min Rain = 0
KCL1 131926Z 13012KT 33/05 A2995 RMK A01 T03310050  RH  017%=      5-min Rain = 0
KCL1 131927Z 12008KT 33/05 A2994 RMK A01 T03270048  RH  017%=      5-min Rain = 0
KCL1 131928Z 16009KT 32/05 A2994 RMK A01 T03240050  RH  018%=      5-min Rain = 0
KCL1 131929Z 15007KT 32/05 A2994 RMK A01 T03230050  RH  018%=      5-min Rain = 0
KCL1 131930Z 14006KT 32/05 A2994 RMK A01 T03230049  RH  018%=      5-min Rain = 0
KCL1 131931Z 13005KT 32/05 A2994 RMK A01 T03220049  RH  018%=      5-min Rain = 0
KCL1 131932Z 14009KT 32/05 A2994 RMK A01 T03210048  RH  018%=      5-min Rain = 0
KCL1 131933Z 18011KT 32/05 A2994 RMK A01 T03190050  RH  018%=      5-min Rain = 0
KCL1 131934Z 19011KT 32/05 A2994 RMK A01 T03200052  RH  019%=      5-min Rain = 0
KCL1 131935Z 21008KT 33/06 A2994 RMK A01 T03250055  RH  018%=      5-min Rain = 0
KCL1 131936Z 19012KT 33/05 A2994 RMK A01 T03310054  RH  018%=      5-min Rain = 0
KCL1 131937Z 18008G14KT 33/05 A2994 RMK A01 T03330052  RH  017%=      5-min Rain = 0
KCL1 131938Z 18007KT 33/05 A2994 RMK A01 T03320053  RH  017%=      5-min Rain = 0
KCL1 131939Z 17011KT 33/06 A2994 RMK A01 T03330055  RH  018%=      5-min Rain = 0
KCL1 131940Z 17013KT 34/06 A2994 RMK A01 T03370055  RH  017%=      5-min Rain = 0
KCL1 131941Z 18012KT 34/06 A2993 RMK A01 T03390055  RH  017%=      5-min Rain = 0
KCL1 131942Z 18014G19KT 34/05 A2994 RMK A01 T03420054  RH  017%=      5-min Rain = 0
KCL1 131943Z 18011KT 34/05 A2994 RMK A01 T03420054  RH  017%=      5-min Rain = 0
KCL1 131944Z 16005KT 34/05 A2994 RMK A01 T03380052  RH  017%=      5-min Rain = 0
KCL1 131945Z 21004KT 34/06 A2994 RMK A01 T03370055  RH  017%=      5-min Rain = 0
KCL1 131946Z 21006KT 34/05 A2993 RMK A01 T03370053  RH  017%=      5-min Rain = 0
KCL1 131947Z 19010KT 34/06 A2993 RMK A01 T03400055  RH  017%=      5-min Rain = 0
KCL1 131948Z 15010KT 34/06 A2993 RMK A01 T03440055  RH  017%=      5-min Rain = 0
KCL1 131949Z 16010KT 34/06 A2993 RMK A01 T03440055  RH  017%=      5-min Rain = 0
KCL1 131950Z 17010KT 34/05 A2993 RMK A01 T03420052  RH  016%=      5-min Rain = 0
KCL1 131951Z 17008KT 34/05 A2993 RMK A01 T03370052  RH  017%=      5-min Rain = 0
KCL1 131952Z 16008KT 34/05 A2993 RMK A01 T03360054  RH  017%=      5-min Rain = 0
KCL1 131953Z 15006KT 34/05 A2993 RMK A01 T03370052  RH  017%=      5-min Rain = 0
KCL1 131954Z 13007KT 34/06 A2993 RMK A01 T03370055  RH  017%=      5-min Rain = 0
KCL1 131955Z 11005KT 34/06 A2993 RMK A01 T03410058  RH  017%=      5-min Rain = 0
KCL1 131956Z 23004KT 35/05 A2993 RMK A01 T03450053  RH  016%=      5-min Rain = 0
KCL1 131957Z 19009KT 35/05 A2992 RMK A01 T03460053  RH  016%=      5-min Rain = 0
KCL1 131958Z 13009KT 35/06 A2993 RMK A01 T03490056  RH  016%=      5-min Rain = 0
KCL1 131959Z 17011KT 35/06 A2993 RMK A01 T03500056  RH  016%=      5-min Rain = 0
KCL1 132000Z 16010KT 35/05 A2993 RMK A01 T03490054  RH  016%=      5-min Rain = 0
KCL1 132001Z 18013KT 35/05 A2993 RMK A01 T03450053  RH  016%=      5-min Rain = 0
KCL1 132002Z 18008KT 34/05 A2993 RMK A01 T03440051  RH  016%=      5-min Rain = 0
KCL1 132003Z 19010KT 34/05 A2993 RMK A01 T03430052  RH  016%=      5-min Rain = 0
KCL1 132004Z 19009G14KT 34/05 A2993 RMK A01 T03430049  RH  016%=      5-min Rain = 0
KCL1 132005Z 19007KT 34/05 A2993 RMK A01 T03400047  RH  016%=      5-min Rain = 0
KCL1 132006Z 19006KT 34/05 A2993 RMK A01 T03360047  RH  016%=      5-min Rain = 0
KCL1 132007Z 16007KT 33/05 A2993 RMK A01 T03330049  RH  017%=      5-min Rain = 0
KCL1 132008Z 18009KT 33/05 A2993 RMK A01 T03330050  RH  017%=      5-min Rain = 0
KCL1 132009Z 19012KT 33/05 A2993 RMK A01 T03320049  RH  017%=      5-min Rain = 0
KCL1 132010Z 18009KT 33/05 A2993 RMK A01 T03300048  RH  017%=      5-min Rain = 0
KCL1 132011Z 18005KT 33/05 A2993 RMK A01 T03280048  RH  017%=      5-min Rain = 0
KCL1 132012Z 16005KT 33/05 A2993 RMK A01 T03280049  RH  017%=      5-min Rain = 0
KCL1 132013Z 17004KT 33/05 A2993 RMK A01 T03310051  RH  017%=      5-min Rain = 0
KCL1 132014Z 16006G11KT 33/05 A2992 RMK A01 T03340053  RH  017%=      5-min Rain = 0
KCL1 132015Z 19008KT 34/06 A2992 RMK A01 T03400056  RH  017%=      5-min Rain = 0
KCL1 132016Z 19007KT 35/06 A2992 RMK A01 T03450055  RH  016%=      5-min Rain = 0
KCL1 132017Z 18005KT 35/05 A2992 RMK A01 T03460054  RH  016%=      5-min Rain = 0
KCL1 132018Z 19006KT 35/06 A2992 RMK A01 T03460055  RH  016%=      5-min Rain = 0
KCL1 132019Z 19007KT 34/05 A2992 RMK A01 T03430054  RH  016%=      5-min Rain = 0
KCL1 132020Z 20009G14KT 34/06 A2992 RMK A01 T03420055  RH  017%=      5-min Rain = 0
KCL1 132021Z 19008G14KT 34/05 A2992 RMK A01 T03430054  RH  017%=      5-min Rain = 0
KCL1 132022Z 18009G14KT 35/06 A2992 RMK A01 T03460058  RH  017%=      5-min Rain = 0
KCL1 132023Z 19012KT 35/06 A2992 RMK A01 T03480056  RH  016%=      5-min Rain = 0
KCL1 132024Z 17013KT 34/06 A2992 RMK A01 T03440056  RH  017%=      5-min Rain = 0
KCL1 132025Z 16008KT 34/06 A2992 RMK A01 T03400055  RH  017%=      5-min Rain = 0
KCL1 132026Z 17009KT 34/06 A2992 RMK A01 T03370057  RH  018%=      5-min Rain = 0
KCL1 132027Z 16008KT 34/06 A2992 RMK A01 T03370058  RH  018%=      5-min Rain = 0
KCL1 132028Z 18008KT 34/06 A2992 RMK A01 T03380057  RH  017%=      5-min Rain = 0
KCL1 132029Z 18008KT 34/06 A2992 RMK A01 T03360055  RH  017%=      5-min Rain = 0
KCL1 132030Z 18008KT 33/06 A2992 RMK A01 T03340056  RH  018%=      5-min Rain = 0
KCL1 132031Z 20009G15KT 33/06 A2992 RMK A01 T03340056  RH  018%=      5-min Rain = 0
KCL1 132032Z 17012KT 33/06 A2992 RMK A01 T03330056  RH  018%=      5-min Rain = 0
KCL1 132033Z 18010KT 33/06 A2992 RMK A01 T03330055  RH  018%=      5-min Rain = 0
KCL1 132034Z 19008KT 33/06 A2992 RMK A01 T03330055  RH  018%=      5-min Rain = 0
KCL1 132035Z 21008KT 34/05 A2992 RMK A01 T03360054  RH  017%=      5-min Rain = 0
KCL1 132036Z 22013KT 33/05 A2991 RMK A01 T03340053  RH  017%=      5-min Rain = 0
KCL1 132037Z 23011KT 33/05 A2991 RMK A01 T03320053  RH  017%=      5-min Rain = 0
KCL1 132038Z 23012KT 33/05 A2991 RMK A01 T03310054  RH  018%=      5-min Rain = 0
KCL1 132039Z 23013KT 33/05 A2991 RMK A01 T03300053  RH  018%=      5-min Rain = 0
KCL1 132040Z 23011KT 33/05 A2991 RMK A01 T03280052  RH  018%=      5-min Rain = 0
KCL1 132041Z 22008KT 33/05 A2991 RMK A01 T03270053  RH  018%=      5-min Rain = 0
KCL1 132042Z 21007KT 33/06 A2992 RMK A01 T03300056  RH  018%=      5-min Rain = 0
KCL1 132043Z 19011G16KT 33/06 A2991 RMK A01 T03340057  RH  018%=      5-min Rain = 0
KCL1 132044Z 17010KT 34/06 A2991 RMK A01 T03350057  RH  018%=      5-min Rain = 0
KCL1 132045Z 20008KT 33/06 A2991 RMK A01 T03340057  RH  018%=      5-min Rain = 0
KCL1 132046Z 20007KT 34/06 A2991 RMK A01 T03350058  RH  018%=      5-min Rain = 0
KCL1 132047Z 20008KT 34/06 A2991 RMK A01 T03390058  RH  017%=      5-min Rain = 0
KCL1 132048Z 20008KT 34/06 A2991 RMK A01 T03390057  RH  017%=      5-min Rain = 0
KCL1 132049Z 16007KT 34/06 A2991 RMK A01 T03370058  RH  018%=      5-min Rain = 0
KCL1 132050Z 16007G12KT 34/06 A2991 RMK A01 T03350058  RH  018%=      5-min Rain = 0
KCL1 132051Z 17010KT 33/06 A2991 RMK A01 T03340058  RH  018%=      5-min Rain = 0
KCL1 132052Z 17011KT 33/06 A2991 RMK A01 T03320057  RH  018%=      5-min Rain = 0
KCL1 132053Z 17013KT 33/06 A2991 RMK A01 T03300057  RH  018%=      5-min Rain = 0
KCL1 132054Z 15012KT 33/06 A2991 RMK A01 T03290057  RH  018%=      5-min Rain = 0
KCL1 132055Z 17009KT 33/06 A2991 RMK A01 T03280057  RH  018%=      5-min Rain = 0
KCL1 132056Z 17009KT 33/06 A2991 RMK A01 T03270058  RH  019%=      5-min Rain = 0
KCL1 132057Z 18011KT 33/06 A299 RMK A01 T03280059  RH  019%=      5-min Rain = 0
KCL1 132058Z 20011KT 33/06 A299 RMK A01 T03290059  RH  019%=      5-min Rain = 0
KCL1 132059Z 18013KT 33/06 A2991 RMK A01 T03300059  RH  018%=      5-min Rain = 0
KCL1 132100Z 17009KT 33/06 A2991 RMK A01 T03290059  RH  019%=      5-min Rain = 0
KCL1 132101Z 17009KT 33/06 A299 RMK A01 T03290059  RH  019%=      5-min Rain = 0
KCL1 132102Z 16011KT 33/06 A299 RMK A01 T03280059  RH  019%=      5-min Rain = 0
KCL1 132103Z 17010KT 33/06 A299 RMK A01 T03310060  RH  019%=      5-min Rain = 0
KCL1 132104Z 19014KT 34/06 A299 RMK A01 T03370063  RH  018%=      5-min Rain = 0
KCL1 132105Z 17011KT 34/06 A299 RMK A01 T03400060  RH  018%=      5-min Rain = 0
KCL1 132106Z 19012KT 34/06 A299 RMK A01 T03380060  RH  018%=      5-min Rain = 0
KCL1 132107Z 19012KT 34/06 A299 RMK A01 T03360058  RH  018%=      5-min Rain = 0
KCL1 132108Z 18010KT 33/06 A299 RMK A01 T03340058  RH  018%=      5-min Rain = 0
KCL1 132109Z 16008KT 33/06 A299 RMK A01 T03330058  RH  018%=      5-min Rain = 0
KCL1 132110Z 16009KT 33/06 A299 RMK A01 T03330059  RH  018%=      5-min Rain = 0
KCL1 132111Z 17011KT 33/06 A299 RMK A01 T03320059  RH  018%=      5-min Rain = 0
KCL1 132112Z 16012KT 33/06 A299 RMK A01 T03310058  RH  018%=      5-min Rain = 0
KCL1 132113Z 17013KT 33/06 A299 RMK A01 T03290057  RH  018%=      5-min Rain = 0
KCL1 132114Z 18009KT 33/06 A299 RMK A01 T03290058  RH  018%=      5-min Rain = 0
KCL1 132115Z 16010KT 33/06 A299 RMK A01 T03280057  RH  018%=      5-min Rain = 0
KCL1 132116Z 19014KT 33/06 A299 RMK A01 T03280057  RH  018%=      5-min Rain = 0
KCL1 132117Z 20011KT 33/06 A299 RMK A01 T03290059  RH  018%=      5-min Rain = 0
KCL1 132118Z 20015G20KT 33/06 A299 RMK A01 T03310058  RH  018%=      5-min Rain = 0
KCL1 132119Z 20014KT 33/06 A299 RMK A01 T03300057  RH  018%=      5-min Rain = 0
KCL1 132120Z 20012KT 33/06 A299 RMK A01 T03290058  RH  018%=      5-min Rain = 0
KCL1 132121Z 20011KT 33/06 A299 RMK A01 T03300057  RH  018%=      5-min Rain = 0
KCL1 132122Z 19011KT 33/06 A299 RMK A01 T03330060  RH  018%=      5-min Rain = 0
KCL1 132123Z 19009KT 34/06 A299 RMK A01 T03360059  RH  018%=      5-min Rain = 0
KCL1 132124Z 21009KT 34/06 A299 RMK A01 T03360059  RH  018%=      5-min Rain = 0
KCL1 132125Z 21008KT 34/06 A2989 RMK A01 T03360059  RH  018%=      5-min Rain = 0
KCL1 132126Z 21011G16KT 34/06 A2989 RMK A01 T03350059  RH  018%=      5-min Rain = 0
KCL1 132127Z 21010KT 34/06 A2989 RMK A01 T03360057  RH  018%=      5-min Rain = 0
KCL1 132128Z 20014KT 34/06 A2989 RMK A01 T03370058  RH  018%=      5-min Rain = 0
KCL1 132129Z 20014KT 34/06 A2989 RMK A01 T03370058  RH  018%=      5-min Rain = 0
KCL1 132130Z 21013G19KT 34/06 A2989 RMK A01 T03370059  RH  018%=      5-min Rain = 0
KCL1 132131Z 21011KT 34/06 A2989 RMK A01 T03370059  RH  018%=      5-min Rain = 0
KCL1 132132Z 19008KT 34/06 A2989 RMK A01 T03370060  RH  018%=      5-min Rain = 0
KCL1 132133Z 20009KT 34/06 A2989 RMK A01 T03400062  RH  018%=      5-min Rain = 0
KCL1 132134Z 20009KT 34/06 A2989 RMK A01 T03420061  RH  017%=      5-min Rain = 0
KCL1 132135Z 19010G16KT 34/06 A2989 RMK A01 T03420061  RH  017%=      5-min Rain = 0
KCL1 132136Z 19009KT 34/06 A2989 RMK A01 T03430064  RH  018%=      5-min Rain = 0
KCL1 132137Z 18011G16KT 35/06 A2989 RMK A01 T03450064  RH  018%=      5-min Rain = 0
KCL1 132138Z 16014KT 35/07 A2989 RMK A01 T03450065  RH  018%=      5-min Rain = 0
KCL1 132139Z 17013KT 34/06 A2989 RMK A01 T03420063  RH  018%=      5-min Rain = 0
KCL1 132140Z 21011KT 34/06 A2989 RMK A01 T03370064  RH  018%=      5-min Rain = 0
KCL1 132141Z 22011G16KT 34/07 A2989 RMK A01 T03380065  RH  018%=      5-min Rain = 0
KCL1 132142Z 22014G20KT 34/06 A2989 RMK A01 T03380063  RH  018%=      5-min Rain = 0
KCL1 132143Z 21012KT 33/06 A2989 RMK A01 T03340063  RH  018%=      5-min Rain = 0
KCL1 132144Z 21010KT 33/06 A2989 RMK A01 T03320063  RH  019%=      5-min Rain = 0
KCL1 132145Z 18010G15KT 33/06 A2989 RMK A01 T03300064  RH  019%=      5-min Rain = 0
KCL1 132146Z 19012KT 33/07 A2989 RMK A01 T03300066  RH  019%=      5-min Rain = 0
KCL1 132147Z 17014G19KT 33/07 A2989 RMK A01 T03300066  RH  019%=      5-min Rain = 0
KCL1 132148Z 17013G18KT 33/07 A2989 RMK A01 T03330068  RH  019%=      5-min Rain = 0
KCL1 132149Z 16011KT 34/07 A2989 RMK A01 T03380068  RH  019%=      5-min Rain = 0
KCL1 132150Z 15010KT 34/07 A2989 RMK A01 T03380066  RH  019%=      5-min Rain = 0
KCL1 132151Z 17013KT 34/07 A2989 RMK A01 T03360067  RH  019%=      5-min Rain = 0
KCL1 132152Z 16013KT 34/07 A2989 RMK A01 T03370069  RH  019%=      5-min Rain = 0
KCL1 132153Z 18009KT 34/07 A2988 RMK A01 T03390069  RH  019%=      5-min Rain = 0
KCL1 132154Z 22009KT 34/07 A2988 RMK A01 T03410069  RH  019%=      5-min Rain = 0
KCL1 132155Z 21010KT 34/07 A2988 RMK A01 T03420067  RH  018%=      5-min Rain = 0
KCL1 132156Z 18011KT 34/07 A2988 RMK A01 T03410067  RH  018%=      5-min Rain = 0
KCL1 132157Z 18011KT 34/07 A2988 RMK A01 T03390068  RH  019%=      5-min Rain = 0
KCL1 132158Z 19009G15KT 34/07 A2988 RMK A01 T03370067  RH  019%=      5-min Rain = 0
KCL1 132159Z 19011KT 34/07 A2988 RMK A01 T03360066  RH  019%=      5-min Rain = 0
KCL1 132200Z 19015G20KT 34/07 A2988 RMK A01 T03360065  RH  019%=      5-min Rain = 0
KCL1 132201Z 18014KT 34/07 A2988 RMK A01 T03380065  RH  018%=      5-min Rain = 0
KCL1 132202Z 20007KT 34/07 A2988 RMK A01 T03430067  RH  018%=      5-min Rain = 0
KCL1 132203Z 19015KT 35/06 A2988 RMK A01 T03460064  RH  017%=      5-min Rain = 0
KCL1 132204Z 20013KT 34/06 A2988 RMK A01 T03440061  RH  017%=      5-min Rain = 0
KCL1 132205Z 19009KT 34/06 A2988 RMK A01 T03410059  RH  017%=      5-min Rain = 0
KCL1 132206Z 18006KT 34/06 A2988 RMK A01 T03400059  RH  018%=      5-min Rain = 0
KCL1 132207Z 18005KT 34/06 A2988 RMK A01 T03400062  RH  018%=      5-min Rain = 0
KCL1 132208Z 18007KT 34/06 A2988 RMK A01 T03440063  RH  018%=      5-min Rain = 0
KCL1 132209Z 18007KT 35/06 A2988 RMK A01 T03450062  RH  017%=      5-min Rain = 0
KCL1 132210Z 17010G16KT 35/06 A2988 RMK A01 T03460061  RH  017%=      5-min Rain = 0
KCL1 132211Z 19011KT 35/06 A2987 RMK A01 T03450064  RH  018%=      5-min Rain = 0
KCL1 132212Z 21014G22KT 34/07 A2987 RMK A01 T03440065  RH  018%=      5-min Rain = 0
KCL1 132213Z 20012KT 34/07 A2987 RMK A01 T03440067  RH  018%=      5-min Rain = 0
KCL1 132214Z 20011KT 34/07 A2987 RMK A01 T03430068  RH  018%=      5-min Rain = 0
KCL1 132215Z 21013KT 34/07 A2987 RMK A01 T03420069  RH  019%=      5-min Rain = 0
KCL1 132216Z 21012G17KT 34/07 A2987 RMK A01 T03400069  RH  019%=      5-min Rain = 0
KCL1 132217Z 23013G18KT 34/07 A2987 RMK A01 T03400069  RH  019%=      5-min Rain = 0
KCL1 132218Z 20013KT 34/07 A2987 RMK A01 T03400069  RH  019%=      5-min Rain = 0
KCL1 132219Z 19009KT 34/07 A2987 RMK A01 T03400069  RH  019%=      5-min Rain = 0
KCL1 132220Z 21007G14KT 34/07 A2987 RMK A01 T03410069  RH  019%=      5-min Rain = 0
KCL1 132221Z 21010G16KT 34/07 A2987 RMK A01 T03420071  RH  019%=      5-min Rain = 0
KCL1 132222Z 22015KT 34/07 A2987 RMK A01 T03440069  RH  018%=      5-min Rain = 0
KCL1 132223Z 22012KT 34/07 A2987 RMK A01 T03420068  RH  018%=      5-min Rain = 0
KCL1 132224Z 19010KT 34/07 A2987 RMK A01 T03420069  RH  019%=      5-min Rain = 0
KCL1 132225Z 23008KT 34/07 A2987 RMK A01 T03420067  RH  018%=      5-min Rain = 0
KCL1 132226Z 20009G15KT 34/07 A2987 RMK A01 T03420067  RH  018%=      5-min Rain = 0
KCL1 132227Z 24013G18KT 34/07 A2987 RMK A01 T03440066  RH  018%=      5-min Rain = 0
KCL1 132228Z 22012KT 34/07 A2987 RMK A01 T03440065  RH  018%=      5-min Rain = 0
KCL1 132229Z 22014KT 34/07 A2987 RMK A01 T03430065  RH  018%=      5-min Rain = 0
KCL1 132230Z 20009KT 34/07 A2987 RMK A01 T03420066  RH  018%=      5-min Rain = 0
KCL1 132231Z 21009G17KT 34/07 A2987 RMK A01 T03420069  RH  018%=      5-min Rain = 0
KCL1 132232Z 20014KT 34/07 A2987 RMK A01 T03430069  RH  018%=      5-min Rain = 0
KCL1 132233Z 20012KT 34/07 A2987 RMK A01 T03420068  RH  018%=      5-min Rain = 0
KCL1 132234Z 20009KT 34/07 A2987 RMK A01 T03410068  RH  018%=      5-min Rain = 0
KCL1 132235Z 21010KT 34/07 A2986 RMK A01 T03410067  RH  018%=      5-min Rain = 0
KCL1 132236Z 22010KT 34/07 A2986 RMK A01 T03410065  RH  018%=      5-min Rain = 0
KCL1 132237Z 18008KT 34/07 A2986 RMK A01 T03380066  RH  018%=      5-min Rain = 0
KCL1 132238Z 19006KT 34/07 A2986 RMK A01 T03360066  RH  019%=      5-min Rain = 0
KCL1 132239Z 17008G13KT 34/07 A2986 RMK A01 T03370069  RH  019%=      5-min Rain = 0
KCL1 132240Z 18012KT 34/07 A2986 RMK A01 T03400069  RH  019%=      5-min Rain = 0
KCL1 132241Z 19010KT 34/07 A2986 RMK A01 T03400069  RH  019%=      5-min Rain = 0
KCL1 132242Z 20009KT 34/07 A2986 RMK A01 T03400067  RH  018%=      5-min Rain = 0
KCL1 132243Z 18011G16KT 34/07 A2986 RMK A01 T03410068  RH  018%=      5-min Rain = 0
KCL1 132244Z 19014KT 34/06 A2986 RMK A01 T03410063  RH  018%=      5-min Rain = 0
KCL1 132245Z 19015KT 34/06 A2986 RMK A01 T03390056  RH  017%=      5-min Rain = 0
KCL1 132246Z 22014KT 34/06 A2986 RMK A01 T03370055  RH  017%=      5-min Rain = 0
KCL1 132247Z 22012KT 34/05 A2986 RMK A01 T03370051  RH  017%=      5-min Rain = 0
KCL1 132248Z 21008KT 34/05 A2986 RMK A01 T03350051  RH  017%=      5-min Rain = 0
KCL1 132249Z 19012KT 34/05 A2986 RMK A01 T03350050  RH  017%=      5-min Rain = 0
KCL1 132250Z 19010KT 34/05 A2986 RMK A01 T03350049  RH  017%=      5-min Rain = 0
KCL1 132251Z 18011KT 33/05 A2986 RMK A01 T03340049  RH  017%=      5-min Rain = 0
KCL1 132252Z 19015G21KT 33/05 A2986 RMK A01 T03340049  RH  017%=      5-min Rain = 0
KCL1 132253Z 19017G24KT 34/05 A2986 RMK A01 T03350048  RH  017%=      5-min Rain = 0
KCL1 132254Z 19014KT 33/05 A2986 RMK A01 T03340047  RH  017%=      5-min Rain = 0
KCL1 132255Z 18013G20KT 33/05 A2986 RMK A01 T03330046  RH  017%=      5-min Rain = 0
KCL1 132256Z 18010KT 33/05 A2986 RMK A01 T03330047  RH  017%=      5-min Rain = 0
KCL1 132257Z 18015KT 33/05 A2985 RMK A01 T03330046  RH  017%=      5-min Rain = 0
KCL1 132258Z 19016KT 33/04 A2985 RMK A01 T03330041  RH  016%=      5-min Rain = 0
KCL1 132259Z 18018G25KT 33/04 A2985 RMK A01 T03330036  RH  015%=      5-min Rain = 0
KCL1 132300Z 20015G22KT 33/03 A2985 RMK A01 T03330032  RH  015%=      5-min Rain = 0
KCL1 132301Z 22015G22KT 33/03 A2985 RMK A01 T03320029  RH  015%=      5-min Rain = 0
KCL1 132302Z 22017G22KT 33/01 A2985 RMK A01 T03320014  RH  013%=      5-min Rain = 0
KCL1 132303Z 22013KT 33/01 A2985 RMK A01 T03320011  RH  013%=      5-min Rain = 0
KCL1 132304Z 22013G21KT 33/01 A2985 RMK A01 T03320009  RH  013%=      5-min Rain = 0
KCL1 132305Z 22014KT 33/01 A2985 RMK A01 T03320006  RH  013%=      5-min Rain = 0
KCL1 132306Z 22009G15KT 33/01 A2985 RMK A01 T03320007  RH  013%=      5-min Rain = 0
KCL1 132307Z 24006KT 33/01 A2985 RMK A01 T03330008  RH  013%=      5-min Rain = 0
KCL1 132308Z 23006KT 33/01 A2985 RMK A01 T03340008  RH  013%=      5-min Rain = 0
KCL1 132309Z 22007G12KT 33/01 A2985 RMK A01 T03340008  RH  013%=      5-min Rain = 0
KCL1 132310Z 23010KT 33/01 A2985 RMK A01 T03340006  RH  012%=      5-min Rain = 0
KCL1 132311Z 23012KT 33/01 A2985 RMK A01 T03340010  RH  013%=      5-min Rain = 0
KCL1 132312Z 22008KT 34/01 A2985 RMK A01 T03350013  RH  013%=      5-min Rain = 0
KCL1 132313Z 22006KT 34/01 A2985 RMK A01 T03350013  RH  013%=      5-min Rain = 0
KCL1 132314Z 22006G12KT 34/01 A2985 RMK A01 T03360013  RH  013%=      5-min Rain = 0
KCL1 132315Z 22010KT 34/01 A2985 RMK A01 T03370013  RH  013%=      5-min Rain = 0
KCL1 132316Z 21009KT 34/01 A2985 RMK A01 T03370013  RH  013%=      5-min Rain = 0
KCL1 132317Z 22009KT 34/01 A2985 RMK A01 T03370014  RH  013%=      5-min Rain = 0
KCL1 132318Z 24008KT 34/02 A2985 RMK A01 T03360017  RH  013%=      5-min Rain = 0
KCL1 132319Z 24009KT 34/02 A2985 RMK A01 T03370018  RH  013%=      5-min Rain = 0
KCL1 132320Z 22006KT 34/02 A2985 RMK A01 T03380020  RH  013%=      5-min Rain = 0
KCL1 132321Z 21010KT 34/02 A2985 RMK A01 T03380019  RH  013%=      5-min Rain = 0
KCL1 132322Z 21012G17KT 34/02 A2985 RMK A01 T03380020  RH  013%=      5-min Rain = 0
KCL1 132323Z 21011G16KT 34/02 A2985 RMK A01 T03370019  RH  013%=      5-min Rain = 0
KCL1 132324Z 21012G17KT 34/02 A2985 RMK A01 T03360017  RH  013%=      5-min Rain = 0
KCL1 132325Z 22012KT 33/02 A2985 RMK A01 T03340018  RH  013%=      5-min Rain = 0
KCL1 132326Z 22011KT 33/02 A2985 RMK A01 T03320018  RH  014%=      5-min Rain = 0
KCL1 132327Z 22008KT 33/02 A2985 RMK A01 T03320020  RH  014%=      5-min Rain = 0
KCL1 132328Z 21009KT 33/02 A2985 RMK A01 T03310022  RH  014%=      5-min Rain = 0
KCL1 132329Z 20008KT 33/02 A2984 RMK A01 T03310023  RH  014%=      5-min Rain = 0
KCL1 132330Z 22008KT 33/02 A2984 RMK A01 T03310024  RH  014%=      5-min Rain = 0
KCL1 132331Z 23010KT 33/02 A2984 RMK A01 T03310023  RH  014%=      5-min Rain = 0
KCL1 132332Z 22013KT 33/02 A2984 RMK A01 T03300023  RH  014%=      5-min Rain = 0
KCL1 132333Z 21010KT 33/02 A2984 RMK A01 T03290024  RH  015%=      5-min Rain = 0
KCL1 132334Z 21012G18KT 33/02 A2984 RMK A01 T03290024  RH  015%=      5-min Rain = 0
KCL1 132335Z 22011G17KT 33/02 A2984 RMK A01 T03280023  RH  014%=      5-min Rain = 0
KCL1 132336Z 23013G18KT 33/02 A2984 RMK A01 T03280022  RH  014%=      5-min Rain = 0
KCL1 132337Z 22011KT 33/02 A2984 RMK A01 T03270022  RH  014%=      5-min Rain = 0
KCL1 132338Z 22008G13KT 33/02 A2984 RMK A01 T03260022  RH  015%=      5-min Rain = 0
KCL1 132339Z 19009KT 33/02 A2984 RMK A01 T03260024  RH  015%=      5-min Rain = 0
KCL1 132340Z 20008KT 33/02 A2984 RMK A01 T03260024  RH  015%=      5-min Rain = 0
KCL1 132341Z 20008G13KT 33/02 A2984 RMK A01 T03260024  RH  015%=      5-min Rain = 0
KCL1 132342Z 19011G19KT 33/02 A2984 RMK A01 T03260023  RH  015%=      5-min Rain = 0
KCL1 132343Z 21007KT 33/02 A2984 RMK A01 T03250024  RH  015%=      5-min Rain = 0
KCL1 132344Z 20009KT 33/02 A2984 RMK A01 T03250024  RH  015%=      5-min Rain = 0
KCL1 132345Z 21008KT 33/02 A2984 RMK A01 T03250023  RH  015%=      5-min Rain = 0
KCL1 132346Z 20010KT 33/02 A2984 RMK A01 T03250024  RH  015%=      5-min Rain = 0
KCL1 132347Z 21006KT 33/03 A2984 RMK A01 T03250025  RH  015%=      5-min Rain = 0
KCL1 132348Z 21009G14KT 33/03 A2984 RMK A01 T03250026  RH  015%=      5-min Rain = 0
KCL1 132349Z 19011KT 33/03 A2984 RMK A01 T03250026  RH  015%=      5-min Rain = 0
KCL1 132350Z 20010G15KT 32/03 A2984 RMK A01 T03240026  RH  015%=      5-min Rain = 0
KCL1 132351Z 20012KT 32/03 A2984 RMK A01 T03240026  RH  015%=      5-min Rain = 0
KCL1 132352Z 18014KT 32/03 A2984 RMK A01 T03240026  RH  015%=      5-min Rain = 0
KCL1 132353Z 20010KT 32/03 A2984 RMK A01 T03230026  RH  015%=      5-min Rain = 0
KCL1 132354Z 20009KT 32/03 A2984 RMK A01 T03230026  RH  015%=      5-min Rain = 0
KCL1 132355Z 19010G15KT 32/03 A2984 RMK A01 T03230026  RH  015%=      5-min Rain = 0
KCL1 132356Z 19014KT 32/03 A2984 RMK A01 T03230026  RH  015%=      5-min Rain = 0
KCL1 132357Z 19014KT 32/03 A2984 RMK A01 T03230025  RH  015%=      5-min Rain = 0
KCL1 132358Z 20011KT 32/03 A2984 RMK A01 T03220025  RH  015%=      5-min Rain = 0
KCL1 132359Z 20010KT 32/02 A2984 RMK A01 T03220024  RH  015%=      5-min Rain = 0
KCL1 140000Z 19011KT 32/02 A2984 RMK A01 T03220024  RH  015%=      5-min Rain = 0
KCL1 140001Z 19010G15KT 32/02 A2984 RMK A01 T03220023  RH  015%=      5-min Rain = 0
KCL1 140002Z 21008G13KT 32/02 A2984 RMK A01 T03220023  RH  015%=      5-min Rain = 0
KCL1 140003Z 21006KT 32/02 A2984 RMK A01 T03220023  RH  015%=      5-min Rain = 0
KCL1 140004Z 22008KT 32/02 A2984 RMK A01 T03220024  RH  015%=      5-min Rain = 0
KCL1 140005Z 22009G15KT 32/02 A2984 RMK A01 T03220023  RH  015%=      5-min Rain = 0
KCL1 140006Z 21014KT 32/02 A2984 RMK A01 T03220022  RH  015%=      5-min Rain = 0
KCL1 140007Z 22011KT 32/02 A2984 RMK A01 T03210022  RH  015%=      5-min Rain = 0
KCL1 140008Z 21010KT 32/02 A2984 RMK A01 T03210021  RH  015%=      5-min Rain = 0
KCL1 140009Z 22008KT 32/02 A2984 RMK A01 T03210022  RH  015%=      5-min Rain = 0
KCL1 140010Z 22008KT 32/02 A2984 RMK A01 T03210022  RH  015%=      5-min Rain = 0
KCL1 140011Z 20009KT 32/02 A2984 RMK A01 T03210023  RH  015%=      5-min Rain = 0
KCL1 140012Z 19007KT 32/02 A2984 RMK A01 T03210022  RH  015%=      5-min Rain = 0
KCL1 140013Z 20007KT 32/02 A2984 RMK A01 T03210023  RH  015%=      5-min Rain = 0
KCL1 140014Z 20005KT 32/02 A2984 RMK A01 T03210024  RH  015%=      5-min Rain = 0
KCL1 140015Z 20009KT 32/02 A2984 RMK A01 T03200023  RH  015%=      5-min Rain = 0
KCL1 140016Z 20009KT 32/02 A2984 RMK A01 T03200023  RH  015%=      5-min Rain = 0
KCL1 140017Z 20008KT 32/02 A2984 RMK A01 T03200024  RH  015%=      5-min Rain = 0
KCL1 140018Z 18008KT 32/03 A2984 RMK A01 T03210025  RH  015%=      5-min Rain = 0
KCL1 140019Z 20009KT 32/03 A2984 RMK A01 T03200025  RH  015%=      5-min Rain = 0
KCL1 140020Z 20009KT 32/03 A2984 RMK A01 T03200026  RH  016%=      5-min Rain = 0
KCL1 140021Z 20009KT 32/03 A2984 RMK A01 T03200027  RH  016%=      5-min Rain = 0
KCL1 140022Z 20011KT 32/03 A2984 RMK A01 T03200027  RH  016%=      5-min Rain = 0
KCL1 140023Z 19009KT 32/03 A2984 RMK A01 T03200028  RH  016%=      5-min Rain = 0
KCL1 140024Z 19007KT 32/03 A2984 RMK A01 T03190028  RH  016%=      5-min Rain = 0
KCL1 140025Z 19006KT 32/03 A2984 RMK A01 T03190028  RH  016%=      5-min Rain = 0
KCL1 140026Z 20007KT 32/03 A2984 RMK A01 T03190028  RH  016%=      5-min Rain = 0
KCL1 140027Z 20008KT 32/03 A2984 RMK A01 T03190028  RH  016%=      5-min Rain = 0
KCL1 140028Z 19008KT 32/03 A2984 RMK A01 T03190030  RH  016%=      5-min Rain = 0
KCL1 140029Z 20007KT 32/03 A2983 RMK A01 T03180030  RH  016%=      5-min Rain = 0
KCL1 140030Z 20007KT 32/03 A2983 RMK A01 T03180030  RH  016%=      5-min Rain = 0
KCL1 140031Z 20007KT 32/03 A2984 RMK A01 T03180030  RH  016%=      5-min Rain = 0
KCL1 140032Z 20010KT 32/03 A2983 RMK A01 T03180030  RH  016%=      5-min Rain = 0
KCL1 140033Z 19008KT 32/03 A2983 RMK A01 T03180029  RH  016%=      5-min Rain = 0
KCL1 140034Z 19008KT 32/03 A2983 RMK A01 T03180030  RH  016%=      5-min Rain = 0
KCL1 140035Z 19010KT 32/03 A2983 RMK A01 T03180029  RH  016%=      5-min Rain = 0
KCL1 140036Z 19009KT 32/03 A2983 RMK A01 T03180029  RH  016%=      5-min Rain = 0
KCL1 140037Z 20009KT 32/03 A2983 RMK A01 T03170029  RH  016%=      5-min Rain = 0
KCL1 140038Z 21008KT 32/03 A2983 RMK A01 T03170029  RH  016%=      5-min Rain = 0
KCL1 140039Z 19010KT 32/03 A2983 RMK A01 T03170030  RH  016%=      5-min Rain = 0
KCL1 140040Z 19009KT 32/03 A2983 RMK A01 T03170029  RH  016%=      5-min Rain = 0
KCL1 140041Z 20008KT 32/03 A2983 RMK A01 T03160029  RH  016%=      5-min Rain = 0
KCL1 140042Z 20009KT 32/03 A2983 RMK A01 T03160029  RH  016%=      5-min Rain = 0
KCL1 140043Z 19010KT 32/03 A2983 RMK A01 T03160029  RH  016%=      5-min Rain = 0
KCL1 140044Z 19009KT 32/03 A2983 RMK A01 T03160029  RH  016%=      5-min Rain = 0
KCL1 140045Z 19009KT 32/03 A2983 RMK A01 T03160029  RH  016%=      5-min Rain = 0
KCL1 140046Z 18009KT 32/03 A2983 RMK A01 T03160029  RH  016%=      5-min Rain = 0
KCL1 140047Z 18010KT 32/03 A2983 RMK A01 T03160030  RH  016%=      5-min Rain = 0
KCL1 140048Z 18008KT 32/03 A2983 RMK A01 T03160030  RH  016%=      5-min Rain = 0
KCL1 140049Z 18008KT 32/03 A2983 RMK A01 T03160030  RH  016%=      5-min Rain = 0
KCL1 140050Z 18007KT 32/03 A2983 RMK A01 T03160031  RH  016%=      5-min Rain = 0
KCL1 140051Z 18008KT 32/03 A2983 RMK A01 T03160031  RH  016%=      5-min Rain = 0
KCL1 140052Z 19010KT 32/03 A2983 RMK A01 T03160031  RH  016%=      5-min Rain = 0
KCL1 140053Z 19010KT 32/03 A2983 RMK A01 T03160031  RH  016%=      5-min Rain = 0
KCL1 140054Z 18008KT 32/03 A2983 RMK A01 T03160032  RH  017%=      5-min Rain = 0
KCL1 140055Z 18008KT 32/03 A2983 RMK A01 T03160032  RH  017%=      5-min Rain = 0
KCL1 140056Z 19008KT 32/03 A2983 RMK A01 T03160032  RH  017%=      5-min Rain = 0
KCL1 140057Z 18006KT 32/03 A2983 RMK A01 T03160034  RH  017%=      5-min Rain = 0
KCL1 140058Z 17008KT 32/03 A2983 RMK A01 T03170034  RH  017%=      5-min Rain = 0
KCL1 140059Z 19009KT 32/04 A2983 RMK A01 T03170035  RH  017%=      5-min Rain = 0
KCL1 140100Z 18007KT 32/04 A2983 RMK A01 T03170035  RH  017%=      5-min Rain = 0
KCL1 140101Z 18009KT 32/04 A2984 RMK A01 T03160035  RH  017%=      5-min Rain = 0
KCL1 140102Z 16011KT 32/04 A2983 RMK A01 T03160035  RH  017%=      5-min Rain = 0
KCL1 140103Z 17008KT 32/04 A2983 RMK A01 T03150036  RH  017%=      5-min Rain = 0
KCL1 140104Z 17007KT 31/04 A2984 RMK A01 T03140036  RH  017%=      5-min Rain = 0
KCL1 140105Z 18010KT 31/04 A2983 RMK A01 T03130036  RH  017%=      5-min Rain = 0
KCL1 140106Z 17013KT 31/04 A2983 RMK A01 T03120036  RH  017%=      5-min Rain = 0
KCL1 140107Z 17012KT 31/04 A2984 RMK A01 T03120036  RH  017%=      5-min Rain = 0
KCL1 140108Z 16011KT 31/04 A2984 RMK A01 T03120035  RH  017%=      5-min Rain = 0
KCL1 140109Z 17009KT 31/04 A2984 RMK A01 T03120036  RH  017%=      5-min Rain = 0
KCL1 140110Z 17010KT 31/04 A2984 RMK A01 T03120037  RH  017%=      5-min Rain = 0
KCL1 140111Z 17013KT 31/04 A2984 RMK A01 T03120036  RH  017%=      5-min Rain = 0
KCL1 140112Z 17012KT 31/04 A2984 RMK A01 T03120036  RH  017%=      5-min Rain = 0
KCL1 140113Z 17009KT 31/04 A2984 RMK A01 T03130036  RH  017%=      5-min Rain = 0
KCL1 140114Z 17009KT 31/04 A2984 RMK A01 T03130036  RH  017%=      5-min Rain = 0
KCL1 140115Z 17010KT 31/04 A2984 RMK A01 T03120037  RH  017%=      5-min Rain = 0
KCL1 140116Z 16009KT 31/04 A2984 RMK A01 T03120037  RH  018%=      5-min Rain = 0
KCL1 140117Z 17009KT 31/04 A2984 RMK A01 T03110036  RH  018%=      5-min Rain = 0
KCL1 140118Z 17010KT 31/04 A2984 RMK A01 T03100036  RH  018%=      5-min Rain = 0
KCL1 140119Z 17011KT 31/04 A2984 RMK A01 T03100036  RH  018%=      5-min Rain = 0
KCL1 140120Z 17009KT 31/04 A2984 RMK A01 T03100037  RH  018%=      5-min Rain = 0
KCL1 140121Z 16007KT 31/04 A2984 RMK A01 T03090036  RH  018%=      5-min Rain = 0
KCL1 140122Z 18007KT 31/04 A2984 RMK A01 T03080037  RH  018%=      5-min Rain = 0
KCL1 140123Z 16007KT 31/04 A2985 RMK A01 T03070037  RH  018%=      5-min Rain = 0
KCL1 140124Z 17008KT 31/04 A2985 RMK A01 T03070037  RH  018%=      5-min Rain = 0
KCL1 140125Z 17011KT 31/04 A2985 RMK A01 T03060037  RH  018%=      5-min Rain = 0
KCL1 140126Z 17011KT 31/04 A2985 RMK A01 T03050037  RH  018%=      5-min Rain = 0
KCL1 140127Z 17008KT 31/04 A2985 RMK A01 T03050037  RH  018%=      5-min Rain = 0
KCL1 140128Z 17009KT 31/04 A2985 RMK A01 T03050036  RH  018%=      5-min Rain = 0
KCL1 140129Z 18007KT 31/04 A2985 RMK A01 T03050037  RH  018%=      5-min Rain = 0
KCL1 140130Z 18007KT 31/04 A2985 RMK A01 T03050037  RH  018%=      5-min Rain = 0
KCL1 140131Z 17008KT 30/04 A2985 RMK A01 T03040037  RH  018%=      5-min Rain = 0
KCL1 140132Z 17008KT 30/04 A2985 RMK A01 T03030037  RH  018%=      5-min Rain = 0
KCL1 140133Z 17006KT 30/04 A2985 RMK A01 T03030037  RH  018%=      5-min Rain = 0
KCL1 140134Z 17008KT 30/04 A2985 RMK A01 T03030037  RH  018%=      5-min Rain = 0
KCL1 140135Z 17008KT 30/04 A2985 RMK A01 T03030038  RH  018%=      5-min Rain = 0
KCL1 140136Z 17008KT 30/04 A2985 RMK A01 T03030038  RH  018%=      5-min Rain = 0
KCL1 140137Z 17009KT 30/04 A2985 RMK A01 T03020038  RH  019%=      5-min Rain = 0
KCL1 140138Z 16007KT 30/04 A2985 RMK A01 T03020038  RH  019%=      5-min Rain = 0
KCL1 140139Z 17008KT 30/04 A2985 RMK A01 T03020038  RH  019%=      5-min Rain = 0
KCL1 140140Z 17006KT 30/04 A2985 RMK A01 T03020038  RH  019%=      5-min Rain = 0
KCL1 140141Z 14008G13KT 30/04 A2985 RMK A01 T03010038  RH  019%=      5-min Rain = 0
KCL1 140142Z 11011KT 30/07 A2985 RMK A01 T02980073  RH  025%=      5-min Rain = 0
KCL1 140143Z 11010KT 29/11 A2985 RMK A01 T02880106  RH  032%=      5-min Rain = 0
KCL1 140144Z 10009KT 28/12 A2985 RMK A01 T02760117  RH  037%=      5-min Rain = 0
KCL1 140145Z 10010KT 27/12 A2985 RMK A01 T02660123  RH  041%=      5-min Rain = 0
KCL1 140146Z 10012KT 26/13 A2985 RMK A01 T02590126  RH  044%=      5-min Rain = 0
KCL1 140147Z 10011KT 25/13 A2985 RMK A01 T02540127  RH  045%=      5-min Rain = 0
KCL1 140148Z 10012KT 25/13 A2986 RMK A01 T02510128  RH  046%=      5-min Rain = 0
KCL1 140149Z 10011KT 25/13 A2986 RMK A01 T02490128  RH  047%=      5-min Rain = 0
KCL1 140150Z 10012KT 25/13 A2986 RMK A01 T02470128  RH  048%=      5-min Rain = 0
KCL1 140151Z 11013KT 25/13 A2986 RMK A01 T02450129  RH  048%=      5-min Rain = 0
KCL1 140152Z 11013KT 24/13 A2986 RMK A01 T02440129  RH  049%=      5-min Rain = 0
KCL1 140153Z 10012KT 24/13 A2987 RMK A01 T02430129  RH  049%=      5-min Rain = 0
KCL1 140154Z 10012KT 24/13 A2987 RMK A01 T02420129  RH  049%=      5-min Rain = 0
KCL1 140155Z 11013KT 24/13 A2987 RMK A01 T02410129  RH  049%=      5-min Rain = 0
KCL1 140156Z 11014KT 24/13 A2987 RMK A01 T02400129  RH  050%=      5-min Rain = 0
KCL1 140157Z 11014KT 24/13 A2987 RMK A01 T02390129  RH  050%=      5-min Rain = 0
KCL1 140158Z 11015KT 24/13 A2987 RMK A01 T02380130  RH  051%=      5-min Rain = 0
KCL1 140159Z 11015KT 24/13 A2987 RMK A01 T02360130  RH  051%=      5-min Rain = 0
KCL1 140200Z 11015KT 24/13 A2987 RMK A01 T02360130  RH  052%=      5-min Rain = 0
KCL1 140201Z 11015KT 24/13 A2987 RMK A01 T02350130  RH  052%=      5-min Rain = 0
KCL1 140202Z 11012KT 23/13 A2987 RMK A01 T02340130  RH  052%=      5-min Rain = 0
KCL1 140203Z 11014KT 23/13 A2987 RMK A01 T02330131  RH  053%=      5-min Rain = 0
KCL1 140204Z 10012KT 23/13 A2987 RMK A01 T02310132  RH  053%=      5-min Rain = 0
KCL1 140205Z 10011KT 23/13 A2987 RMK A01 T02300132  RH  054%=      5-min Rain = 0
KCL1 140206Z 10011KT 23/13 A2988 RMK A01 T02280133  RH  055%=      5-min Rain = 0
KCL1 140207Z 11012KT 23/13 A2988 RMK A01 T02270134  RH  056%=      5-min Rain = 0
KCL1 140208Z 10012KT 23/14 A2988 RMK A01 T02260135  RH  056%=      5-min Rain = 0
KCL1 140209Z 10011KT 23/14 A2988 RMK A01 T02250136  RH  057%=      5-min Rain = 0
KCL1 140210Z 09011KT 22/14 A2988 RMK A01 T02240137  RH  058%=      5-min Rain = 0
KCL1 140211Z 11010KT 22/14 A2988 RMK A01 T02240138  RH  058%=      5-min Rain = 0
KCL1 140212Z 10012KT 22/14 A2988 RMK A01 T02240139  RH  059%=      5-min Rain = 0
KCL1 140213Z 10012KT 22/14 A2988 RMK A01 T02240141  RH  059%=      5-min Rain = 0
KCL1 140214Z 10013KT 22/14 A2988 RMK A01 T02230143  RH  060%=      5-min Rain = 0
KCL1 140215Z 10012KT 22/15 A2989 RMK A01 T02230145  RH  061%=      5-min Rain = 0
KCL1 140216Z 10014KT 22/15 A2989 RMK A01 T02220147  RH  062%=      5-min Rain = 0
KCL1 140217Z 10014KT 22/15 A2989 RMK A01 T02220149  RH  063%=      5-min Rain = 0
KCL1 140218Z 10013KT 22/15 A2989 RMK A01 T02210150  RH  064%=      5-min Rain = 0
KCL1 140219Z 09013KT 22/15 A2989 RMK A01 T02200151  RH  065%=      5-min Rain = 0
KCL1 140220Z 10013KT 22/15 A2989 RMK A01 T02190152  RH  065%=      5-min Rain = 0
KCL1 140221Z 09012KT 22/15 A2989 RMK A01 T02190153  RH  066%=      5-min Rain = 0
KCL1 140222Z 09011KT 22/15 A2989 RMK A01 T02190154  RH  066%=      5-min Rain = 0
KCL1 140223Z 09011KT 22/15 A299 RMK A01 T02180154  RH  067%=      5-min Rain = 0
KCL1 140224Z 09010KT 22/16 A299 RMK A01 T02180155  RH  067%=      5-min Rain = 0
KCL1 140225Z 10010KT 22/16 A299 RMK A01 T02170155  RH  068%=      5-min Rain = 0
KCL1 140226Z 10009KT 22/16 A299 RMK A01 T02170155  RH  068%=      5-min Rain = 0
KCL1 140227Z 11008KT 22/16 A299 RMK A01 T02170155  RH  068%=      5-min Rain = 0
KCL1 140228Z 10007KT 22/16 A299 RMK A01 T02170156  RH  068%=      5-min Rain = 0
KCL1 140229Z 11004KT 22/16 A2991 RMK A01 T02170156  RH  068%=      5-min Rain = 0
KCL1 140230Z 15004KT 22/16 A2991 RMK A01 T02170155  RH  068%=      5-min Rain = 0
KCL1 140231Z 14004KT 22/16 A2991 RMK A01 T02170155  RH  068%=      5-min Rain = 0
KCL1 140232Z 14004KT 22/15 A2991 RMK A01 T02170154  RH  067%=      5-min Rain = 0
KCL1 140233Z 10004KT 22/15 A2991 RMK A01 T02170154  RH  067%=      5-min Rain = 0
KCL1 140234Z 12004KT 22/16 A2991 RMK A01 T02170155  RH  068%=      5-min Rain = 0
KCL1 140235Z 13004KT 22/16 A2992 RMK A01 T02170156  RH  068%=      5-min Rain = 0
KCL1 140236Z 14005KT 22/16 A2992 RMK A01 T02160156  RH  068%=      5-min Rain = 0
KCL1 140237Z 15004KT 22/16 A2992 RMK A01 T02160155  RH  068%=      5-min Rain = 0
KCL1 140238Z 15007KT 22/16 A2992 RMK A01 T02160155  RH  068%=      5-min Rain = 0
KCL1 140239Z 14005KT 22/16 A2992 RMK A01 T02170155  RH  068%=      5-min Rain = 0
KCL1 140240Z 14010KT 22/16 A2992 RMK A01 T02170155  RH  068%=      5-min Rain = 0
KCL1 140241Z 14007KT 22/16 A2992 RMK A01 T02170155  RH  068%=      5-min Rain = 0
KCL1 140242Z 14009KT 22/15 A2992 RMK A01 T02170154  RH  067%=      5-min Rain = 0
KCL1 140243Z 14008KT 22/15 A2992 RMK A01 T02170154  RH  067%=      5-min Rain = 0
KCL1 140244Z 15008KT 22/15 A2992 RMK A01 T02170154  RH  067%=      5-min Rain = 0
KCL1 140245Z 15009KT 22/15 A2992 RMK A01 T02160153  RH  067%=      5-min Rain = 0
KCL1 140246Z 15009KT 22/15 A2992 RMK A01 T02160152  RH  067%=      5-min Rain = 0
KCL1 140247Z 15009KT 22/15 A2992 RMK A01 T02150152  RH  067%=      5-min Rain = 0
KCL1 140248Z 15010KT 22/15 A2992 RMK A01 T02160151  RH  067%=      5-min Rain = 0
KCL1 140249Z 16007KT 22/15 A2992 RMK A01 T02160151  RH  066%=      5-min Rain = 0
KCL1 140250Z 15009KT 22/15 A2993 RMK A01 T02170150  RH  066%=      5-min Rain = 0
KCL1 140251Z 14007KT 22/15 A2993 RMK A01 T02170150  RH  066%=      5-min Rain = 0
KCL1 140252Z 15011KT 22/15 A2993 RMK A01 T02170150  RH  066%=      5-min Rain = 0
KCL1 140253Z 13010KT 22/15 A2993 RMK A01 T02170149  RH  065%=      5-min Rain = 0
KCL1 140254Z 13011KT 22/15 A2993 RMK A01 T02170149  RH  065%=      5-min Rain = 0
KCL1 140255Z 13008KT 22/15 A2993 RMK A01 T02170149  RH  065%=      5-min Rain = 0
KCL1 140256Z 13007KT 22/15 A2993 RMK A01 T02180149  RH  065%=      5-min Rain = 0
KCL1 140257Z 13009KT 22/15 A2993 RMK A01 T02180149  RH  065%=      5-min Rain = 0
KCL1 140258Z 14007KT 22/15 A2993 RMK A01 T02180149  RH  065%=      5-min Rain = 0
KCL1 140259Z 16004KT 22/15 A2993 RMK A01 T02180149  RH  065%=      5-min Rain = 0
KCL1 140300Z 17007KT 22/15 A2993 RMK A01 T02180149  RH  065%=      5-min Rain = 0
KCL1 140301Z 16007KT 22/15 A2993 RMK A01 T02180149  RH  065%=      5-min Rain = 0
KCL1 140302Z 18006KT 22/15 A2993 RMK A01 T02180149  RH  065%=      5-min Rain = 0
KCL1 140303Z 20004KT 22/15 A2993 RMK A01 T02190149  RH  064%=      5-min Rain = 0
KCL1 140304Z 17005KT 22/15 A2994 RMK A01 T02190149  RH  064%=      5-min Rain = 0
KCL1 140305Z 16005KT 22/15 A2994 RMK A01 T02190149  RH  065%=      5-min Rain = 0
KCL1 140306Z 17005KT 22/15 A2994 RMK A01 T02190150  RH  065%=      5-min Rain = 0
KCL1 140307Z 15008KT 22/15 A2994 RMK A01 T02190150  RH  065%=      5-min Rain = 0
KCL1 140308Z 16007KT 22/15 A2994 RMK A01 T02180150  RH  065%=      5-min Rain = 0
KCL1 140309Z 15005KT 22/15 A2994 RMK A01 T02170150  RH  065%=      5-min Rain = 0
KCL1 140310Z 16005KT 22/15 A2994 RMK A01 T02170150  RH  066%=      5-min Rain = 0
KCL1 140311Z 16004KT 22/15 A2994 RMK A01 T02160151  RH  066%=      5-min Rain = 0
KCL1 140312Z 14009G15KT 22/15 A2994 RMK A01 T02160151  RH  067%=      5-min Rain = 0
KCL1 140313Z 15011KT 22/15 A2994 RMK A01 T02160152  RH  067%=      5-min Rain = 0
KCL1 140314Z 14011KT 22/15 A2994 RMK A01 T02160153  RH  067%=      5-min Rain = 0
KCL1 140315Z 16008KT 22/15 A2994 RMK A01 T02170153  RH  067%=      5-min Rain = 0
KCL1 140316Z 16010KT 22/15 A2994 RMK A01 T02170153  RH  067%=      5-min Rain = 0
KCL1 140317Z 14007G12KT 22/15 A2994 RMK A01 T02170154  RH  067%=      5-min Rain = 0
KCL1 140318Z 15006KT 22/15 A2994 RMK A01 T02170154  RH  067%=      5-min Rain = 0
KCL1 140319Z 14007KT 22/16 A2994 RMK A01 T02160155  RH  068%=      5-min Rain = 0
KCL1 140320Z 13008KT 22/16 A2994 RMK A01 T02160155  RH  068%=      5-min Rain = 0
KCL1 140321Z 14008KT 22/16 A2994 RMK A01 T02160155  RH  068%=      5-min Rain = 0
KCL1 140322Z 15009KT 22/16 A2994 RMK A01 T02160156  RH  069%=      5-min Rain = 0
KCL1 140323Z 15009KT 22/16 A2994 RMK A01 T02160156  RH  069%=      5-min Rain = 0
KCL1 140324Z 15008KT 22/16 A2994 RMK A01 T02160157  RH  069%=      5-min Rain = 0
KCL1 140325Z 15010KT 22/16 A2995 RMK A01 T02160157  RH  069%=      5-min Rain = 0
KCL1 140326Z 15009KT 22/16 A2995 RMK A01 T02160157  RH  069%=      5-min Rain = 0
KCL1 140327Z 15009KT 22/16 A2995 RMK A01 T02160158  RH  069%=      5-min Rain = 0
KCL1 140328Z 14008KT 22/16 A2995 RMK A01 T02160158  RH  069%=      5-min Rain = 0
KCL1 140329Z 14007KT 22/16 A2995 RMK A01 T02160158  RH  070%=      5-min Rain = 0
KCL1 140330Z 13007KT 22/16 A2995 RMK A01 T02160158  RH  070%=      5-min Rain = 0
KCL1 140331Z 14008KT 22/16 A2995 RMK A01 T02160158  RH  070%=      5-min Rain = 0
KCL1 140332Z 13008KT 22/16 A2995 RMK A01 T02160159  RH  070%=      5-min Rain = 0
KCL1 140333Z 13008KT 22/16 A2995 RMK A01 T02160159  RH  070%=      5-min Rain = 0
KCL1 140334Z 13007KT 22/16 A2995 RMK A01 T02160159  RH  070%=      5-min Rain = 0
KCL1 140335Z 13009KT 22/16 A2995 RMK A01 T02160159  RH  070%=      5-min Rain = 0
KCL1 140336Z 14011KT 22/16 A2995 RMK A01 T02160159  RH  070%=      5-min Rain = 0
KCL1 140337Z 14009KT 22/16 A2995 RMK A01 T02150159  RH  070%=      5-min Rain = 0
KCL1 140338Z 15010KT 22/16 A2995 RMK A01 T02150159  RH  070%=      5-min Rain = 0
KCL1 140339Z 14011KT 22/16 A2995 RMK A01 T02160159  RH  070%=      5-min Rain = 0
KCL1 140340Z 13010KT 22/16 A2996 RMK A01 T02170160  RH  070%=      5-min Rain = 0
KCL1 140341Z 13011KT 22/16 A2996 RMK A01 T02170159  RH  070%=      5-min Rain = 0
KCL1 140342Z 14014G21KT 22/16 A2996 RMK A01 T02170159  RH  070%=      5-min Rain = 0
KCL1 140343Z 13015KT 22/16 A2995 RMK A01 T02170159  RH  069%=      5-min Rain = 0
KCL1 140344Z 14012G17KT 22/16 A2996 RMK A01 T02180160  RH  069%=      5-min Rain = 0
KCL1 140345Z 12014G20KT 22/16 A2996 RMK A01 T02190159  RH  069%=      5-min Rain = 0
KCL1 140346Z 14013G18KT 22/16 A2996 RMK A01 T02190159  RH  069%=      5-min Rain = 0
KCL1 140347Z 14014KT 22/16 A2996 RMK A01 T02190159  RH  069%=      5-min Rain = 0
KCL1 140348Z 13014KT 22/16 A2995 RMK A01 T02190160  RH  069%=      5-min Rain = 0
KCL1 140349Z 13014KT 22/16 A2996 RMK A01 T02180160  RH  069%=      5-min Rain = 0
KCL1 140350Z 13015KT 22/16 A2995 RMK A01 T02180160  RH  069%=      5-min Rain = 0
KCL1 140351Z 13016G21KT 22/16 A2995 RMK A01 T02180160  RH  070%=      5-min Rain = 0
KCL1 140352Z 13017G22KT 22/16 A2995 RMK A01 T02180160  RH  070%=      5-min Rain = 0
KCL1 140353Z 13016KT 22/16 A2995 RMK A01 T02180160  RH  070%=      5-min Rain = 0
KCL1 140354Z 13014KT 22/16 A2995 RMK A01 T02180160  RH  070%=      5-min Rain = 0
KCL1 140355Z 13015KT 22/16 A2995 RMK A01 T02170160  RH  070%=      5-min Rain = 0
KCL1 140356Z 13015KT 22/16 A2995 RMK A01 T02170160  RH  070%=      5-min Rain = 0
KCL1 140357Z 13011KT 22/16 A2995 RMK A01 T02170161  RH  070%=      5-min Rain = 0
KCL1 140358Z 14013KT 22/16 A2996 RMK A01 T02160161  RH  071%=      5-min Rain = 0
KCL1 140359Z 15012KT 22/16 A2996 RMK A01 T02160161  RH  071%=      5-min Rain = 0
KCL1 140400Z 15011KT 22/16 A2996 RMK A01 T02160161  RH  071%=      5-min Rain = 0
KCL1 140401Z 14011KT 22/16 A2996 RMK A01 T02150161  RH  071%=      5-min Rain = 0
KCL1 140402Z 14011KT 22/16 A2996 RMK A01 T02150161  RH  071%=      5-min Rain = 0
KCL1 140403Z 14014KT 21/16 A2996 RMK A01 T02140161  RH  072%=      5-min Rain = 0
KCL1 140404Z 14010KT 21/16 A2996 RMK A01 T02140161  RH  072%=      5-min Rain = 0
KCL1 140405Z 13012KT 22/16 A2995 RMK A01 T02150162  RH  072%=      5-min Rain = 0
KCL1 140406Z 13013KT 21/16 A2996 RMK A01 T02140162  RH  072%=      5-min Rain = 0
KCL1 140407Z 13011KT 21/16 A2996 RMK A01 T02140162  RH  072%=      5-min Rain = 0
KCL1 140408Z 14011KT 21/16 A2995 RMK A01 T02130162  RH  072%=      5-min Rain = 0
KCL1 140409Z 13010KT 21/16 A2996 RMK A01 T02130162  RH  073%=      5-min Rain = 0
KCL1 140410Z 14011KT 21/16 A2996 RMK A01 T02120161  RH  073%=      5-min Rain = 0
KCL1 140411Z 14011KT 21/16 A2996 RMK A01 T02120162  RH  073%=      5-min Rain = 0
KCL1 140412Z 15009KT 21/16 A2996 RMK A01 T02120162  RH  073%=      5-min Rain = 0
KCL1 140413Z 15011KT 21/16 A2996 RMK A01 T02120162  RH  073%=      5-min Rain = 0
KCL1 140414Z 16012KT 21/16 A2996 RMK A01 T02120161  RH  073%=      5-min Rain = 0
KCL1 140415Z 15011G16KT 21/16 A2996 RMK A01 T02120162  RH  073%=      5-min Rain = 0
KCL1 140416Z 15011KT 21/16 A2996 RMK A01 T02120161  RH  073%=      5-min Rain = 0
KCL1 140417Z 15010KT 21/16 A2996 RMK A01 T02120162  RH  073%=      5-min Rain = 0
KCL1 140418Z 15006KT 21/16 A2996 RMK A01 T02120161  RH  073%=      5-min Rain = 0
KCL1 140419Z 14009KT 21/16 A2996 RMK A01 T02120161  RH  073%=      5-min Rain = 0
KCL1 140420Z 15010KT 21/16 A2996 RMK A01 T02110161  RH  073%=      5-min Rain = 0
KCL1 140421Z 14014KT 21/16 A2996 RMK A01 T02110161  RH  073%=      5-min Rain = 0
KCL1 140422Z 14015KT 21/16 A2996 RMK A01 T02120160  RH  073%=      5-min Rain = 0
KCL1 140423Z 14012KT 21/16 A2996 RMK A01 T02120161  RH  072%=      5-min Rain = 0
KCL1 140424Z 14015G20KT 21/16 A2996 RMK A01 T02130160  RH  072%=      5-min Rain = 0
KCL1 140425Z 14014KT 21/16 A2996 RMK A01 T02130161  RH  072%=      5-min Rain = 0
KCL1 140426Z 15011G16KT 21/16 A2996 RMK A01 T02130161  RH  072%=      5-min Rain = 0
KCL1 140427Z 15012KT 21/16 A2996 RMK A01 T02130160  RH  072%=      5-min Rain = 0
KCL1 140428Z 16016KT 21/16 A2996 RMK A01 T02130161  RH  072%=      5-min Rain = 0
KCL1 140429Z 15014KT 21/16 A2996 RMK A01 T02130161  RH  072%=      5-min Rain = 0
KCL1 140430Z 15008KT 21/16 A2996 RMK A01 T02130161  RH  072%=      5-min Rain = 0
KCL1 140431Z 16010KT 21/16 A2996 RMK A01 T02120161  RH  072%=      5-min Rain = 0
KCL1 140432Z 14011KT 21/16 A2996 RMK A01 T02120161  RH  073%=      5-min Rain = 0
KCL1 140433Z 15010KT 21/16 A2996 RMK A01 T02110161  RH  073%=      5-min Rain = 0
KCL1 140434Z 14013KT 21/16 A2996 RMK A01 T02110161  RH  073%=      5-min Rain = 0
KCL1 140435Z 14011KT 21/16 A2996 RMK A01 T02110161  RH  073%=      5-min Rain = 0
KCL1 140436Z 15011KT 21/16 A2996 RMK A01 T02110160  RH  073%=      5-min Rain = 0
KCL1 140437Z 14014KT 21/16 A2996 RMK A01 T02110160  RH  073%=      5-min Rain = 0
KCL1 140438Z 15013G18KT 21/16 A2996 RMK A01 T02110161  RH  073%=      5-min Rain = 0
KCL1 140439Z 15010G15KT 21/16 A2996 RMK A01 T02110160  RH  073%=      5-min Rain = 0
KCL1 140440Z 15011KT 21/16 A2996 RMK A01 T02100160  RH  073%=      5-min Rain = 0
KCL1 140441Z 14013KT 21/16 A2996 RMK A01 T02100160  RH  073%=      5-min Rain = 0
KCL1 140442Z 15013KT 21/16 A2996 RMK A01 T02100160  RH  073%=      5-min Rain = 0
KCL1 140443Z 15013KT 21/16 A2996 RMK A01 T02100160  RH  073%=      5-min Rain = 0
KCL1 140444Z 14009KT 21/16 A2996 RMK A01 T02100160  RH  073%=      5-min Rain = 0
KCL1 140445Z 15010KT 21/16 A2996 RMK A01 T02090160  RH  073%=      5-min Rain = 0
KCL1 140446Z 16008KT 21/16 A2996 RMK A01 T02090160  RH  073%=      5-min Rain = 0
KCL1 140447Z 16010KT 21/16 A2996 RMK A01 T02080160  RH  074%=      5-min Rain = 0
KCL1 140448Z 15012G17KT 21/16 A2996 RMK A01 T02080160  RH  074%=      5-min Rain = 0
KCL1 140449Z 15013KT 21/16 A2996 RMK A01 T02080160  RH  074%=      5-min Rain = 0
KCL1 140450Z 14014KT 21/16 A2996 RMK A01 T02080160  RH  074%=      5-min Rain = 0
KCL1 140451Z 15011KT 21/16 A2996 RMK A01 T02080159  RH  073%=      5-min Rain = 0
KCL1 140452Z 14013KT 21/16 A2996 RMK A01 T02090159  RH  073%=      5-min Rain = 0
KCL1 140453Z 14010KT 21/16 A2996 RMK A01 T02090159  RH  073%=      5-min Rain = 0
KCL1 140454Z 15009G16KT 21/16 A2996 RMK A01 T02090159  RH  073%=      5-min Rain = 0
KCL1 140455Z 15013KT 21/16 A2996 RMK A01 T02080159  RH  073%=      5-min Rain = 0
KCL1 140456Z 14012KT 21/16 A2996 RMK A01 T02080159  RH  073%=      5-min Rain = 0
KCL1 140457Z 15011G19KT 21/16 A2996 RMK A01 T02080159  RH  073%=      5-min Rain = 0
KCL1 140458Z 15013G18KT 21/16 A2996 RMK A01 T02080159  RH  073%=      5-min Rain = 0
KCL1 140459Z 15012KT 21/16 A2996 RMK A01 T02080158  RH  073%=      5-min Rain = 0

Page generated in 0.121 seconds.